Wetterdaten: Montag, 18.06.2018
Datum Zeit Temp. Aussen Temp. o. S. +5cm Feuchte Auss Luftdruck Regen Sonnenschein Regendauer Solar Windben Empfang
18.06.2018 00:00 16,3 C 15,6 C 15,0 C 80 % 1017,6 hPa 0,0 l/m 0 min 0 min 0 W/m 0,0 km/h (0 Bft) 97,87 %
18.06.2018 00:02 16,3 C 15,6 C 15,0 C 80 % 1017,6 hPa 0,0 l/m 0 min 0 min 0 W/m 0,0 km/h (0 Bft) 93,33 %
18.06.2018 00:04 16,3 C 15,6 C 15,0 C 80 % 1017,5 hPa 0,0 l/m 0 min 0 min 0 W/m 0,0 km/h (0 Bft) 97,87 %
18.06.2018 00:07 16,3 C 15,6 C 15,0 C 80 % 1017,7 hPa 0,0 l/m 0 min 0 min 0 W/m 0,0 km/h (0 Bft) 97,87 %
18.06.2018 00:08 16,3 C 15,6 C 15,6 C 80 % 1017,7 hPa 0,0 l/m 0 min 0 min 0 W/m 0,0 km/h (0 Bft) 97,37 %
18.06.2018 00:10 16,2 C 15,6 C 15,6 C 80 % 1017,7 hPa 0,0 l/m 0 min 0 min 0 W/m 0,0 km/h (0 Bft) 97,14 %
18.06.2018 00:12 16,2 C 15,6 C 15,6 C 80 % 1017,7 hPa 0,0 l/m 0 min 0 min 0 W/m 0,0 km/h (0 Bft) 95,74 %
18.06.2018 00:14 16,2 C 16,1 C 15,6 C 80 % 1017,7 hPa 0,0 l/m 0 min 0 min 0 W/m 0,0 km/h (0 Bft) 95,74 %
18.06.2018 00:16 16,2 C 16,1 C 15,6 C 80 % 1017,7 hPa 0,0 l/m 0 min 0 min 0 W/m 4,5 km/h (1 Bft) 95,74 %
18.06.2018 00:18 16,2 C 16,1 C 15,6 C 79 % 1017,7 hPa 0,0 l/m 0 min 0 min 0 W/m 2,3 km/h (1 Bft) 97,87 %
18.06.2018 00:20 16,2 C 16,1 C 15,6 C 79 % 1017,7 hPa 0,0 l/m 0 min 0 min 0 W/m 2,3 km/h (1 Bft) 97,83 %
18.06.2018 00:22 16,2 C 16,1 C 15,6 C 79 % 1017,7 hPa 0,0 l/m 0 min 0 min 0 W/m 2,3 km/h (1 Bft) 97,87 %
18.06.2018 00:24 16,2 C 16,1 C 15,6 C 79 % 1017,7 hPa 0,0 l/m 0 min 0 min 0 W/m 0,0 km/h (0 Bft) 97,87 %
18.06.2018 00:26 16,2 C 16,1 C 15,6 C 79 % 1017,8 hPa 0,0 l/m 0 min 0 min 0 W/m 2,3 km/h (1 Bft) 97,87 %
18.06.2018 00:28 16,3 C 16,1 C 15,6 C 79 % 1017,7 hPa 0,0 l/m 0 min 0 min 0 W/m 4,5 km/h (1 Bft) 97,87 %
18.06.2018 00:30 16,3 C 16,1 C 15,6 C 79 % 1017,9 hPa 0,0 l/m 0 min 0 min 0 W/m 4,5 km/h (1 Bft) 97,87 %
18.06.2018 00:32 16,3 C 16,1 C 16,1 C 79 % 1017,9 hPa 0,0 l/m 0 min 0 min 0 W/m 6,8 km/h (2 Bft) 97,83 %
18.06.2018 00:34 16,3 C 16,1 C 16,1 C 78 % 1017,8 hPa 0,0 l/m 0 min 0 min 0 W/m 2,3 km/h (1 Bft) 95,74 %
18.06.2018 00:38 16,3 C 16,1 C 15,6 C 78 % 1017,8 hPa 0,0 l/m 0 min 0 min 0 W/m 2,3 km/h (1 Bft) 97,89 %
18.06.2018 00:40 16,3 C 16,1 C 15,6 C 77 % 1017,8 hPa 0,0 l/m 0 min 0 min 0 W/m 4,5 km/h (1 Bft) 97,87 %
18.06.2018 00:42 16,3 C 16,1 C 15,6 C 77 % 1017,8 hPa 0,0 l/m 0 min 0 min 0 W/m 4,5 km/h (1 Bft) 100,00 %
18.06.2018 00:44 16,3 C 16,1 C 16,1 C 76 % 1017,9 hPa 0,0 l/m 0 min 0 min 0 W/m 4,5 km/h (1 Bft) 100,00 %
18.06.2018 00:46 16,3 C 16,1 C 16,1 C 76 % 1017,9 hPa 0,0 l/m 0 min 0 min 0 W/m 2,3 km/h (1 Bft) 97,87 %
18.06.2018 00:48 16,4 C 16,1 C 16,1 C 75 % 1018,0 hPa 0,0 l/m 0 min 0 min 0 W/m 6,8 km/h (2 Bft) 100,00 %
18.06.2018 00:50 16,4 C 16,1 C 16,1 C 75 % 1017,9 hPa 0,0 l/m 0 min 0 min 0 W/m 4,5 km/h (1 Bft) 97,87 %
18.06.2018 00:52 16,4 C 16,1 C 16,1 C 75 % 1017,9 hPa 0,0 l/m 0 min 0 min 0 W/m 9,0 km/h (2 Bft) 97,87 %
18.06.2018 00:54 16,4 C 16,1 C 16,1 C 75 % 1017,9 hPa 0,0 l/m 0 min 0 min 0 W/m 4,5 km/h (1 Bft) 100,00 %
18.06.2018 00:56 16,4 C 16,1 C 16,1 C 75 % 1017,8 hPa 0,0 l/m 0 min 0 min 0 W/m 4,5 km/h (1 Bft) 100,00 %
18.06.2018 00:58 16,4 C 16,1 C 15,6 C 74 % 1017,8 hPa 0,0 l/m 0 min 0 min 0 W/m 4,5 km/h (1 Bft) 95,74 %
18.06.2018 01:00 16,4 C 16,1 C 15,6 C 74 % 1017,8 hPa 0,0 l/m 0 min 0 min 0 W/m 4,5 km/h (1 Bft) 100,00 %
18.06.2018 01:02 16,4 C 16,1 C 15,6 C 74 % 1017,9 hPa 0,0 l/m 0 min 0 min 0 W/m 4,5 km/h (1 Bft) 100,00 %
18.06.2018 01:04 16,4 C 16,1 C 15,6 C 74 % 1018,0 hPa 0,0 l/m 0 min 0 min 0 W/m 6,8 km/h (2 Bft) 97,87 %
18.06.2018 01:08 16,4 C 16,1 C 15,6 C 74 % 1018,0 hPa 0,0 l/m 0 min 0 min 0 W/m 4,5 km/h (1 Bft) 96,77 %
18.06.2018 01:10 16,4 C 16,1 C 15,6 C 74 % 1017,9 hPa 0,0 l/m 0 min 0 min 0 W/m 4,5 km/h (1 Bft) 97,87 %
18.06.2018 01:12 16,4 C 16,1 C 15,6 C 74 % 1017,9 hPa 0,0 l/m 0 min 0 min 0 W/m 2,3 km/h (1 Bft) 95,74 %
18.06.2018 01:14 16,4 C 16,1 C 15,6 C 73 % 1017,9 hPa 0,0 l/m 0 min 0 min 0 W/m 4,5 km/h (1 Bft) 97,87 %
18.06.2018 01:16 16,5 C 16,1 C 15,6 C 73 % 1017,9 hPa 0,0 l/m 0 min 0 min 0 W/m 2,3 km/h (1 Bft) 97,87 %
18.06.2018 01:18 16,5 C 16,1 C 15,6 C 74 % 1018,0 hPa 0,0 l/m 0 min 0 min 0 W/m 2,3 km/h (1 Bft) 93,48 %
18.06.2018 01:20 16,5 C 16,1 C 15,6 C 73 % 1018,0 hPa 0,0 l/m 0 min 0 min 0 W/m 2,3 km/h (1 Bft) 95,74 %
18.06.2018 01:22 16,5 C 16,1 C 15,6 C 74 % 1018,0 hPa 0,0 l/m 0 min 0 min 0 W/m 2,3 km/h (1 Bft) 95,74 %
18.06.2018 01:24 16,5 C 16,1 C 15,6 C 73 % 1018,1 hPa 0,0 l/m 0 min 0 min 0 W/m 4,5 km/h (1 Bft) 95,74 %
18.06.2018 01:26 16,5 C 16,1 C 15,6 C 73 % 1018,0 hPa 0,0 l/m 0 min 0 min 0 W/m 0,0 km/h (0 Bft) 97,87 %
18.06.2018 01:28 16,5 C 16,1 C 15,6 C 73 % 1018,0 hPa 0,0 l/m 0 min 0 min 0 W/m 2,3 km/h (1 Bft) 95,74 %
18.06.2018 01:30 16,5 C 16,1 C 15,6 C 73 % 1018,1 hPa 0,0 l/m 0 min 0 min 0 W/m 4,5 km/h (1 Bft) 95,65 %
18.06.2018 01:32 16,5 C 16,1 C 15,6 C 73 % 1018,2 hPa 0,0 l/m 0 min 0 min 0 W/m 2,3 km/h (1 Bft) 93,62 %
18.06.2018 01:34 16,5 C 16,1 C 15,6 C 73 % 1018,2 hPa 0,0 l/m 0 min 0 min 0 W/m 2,3 km/h (1 Bft) 95,74 %
18.06.2018 01:38 16,4 C 15,6 C 15,6 C 73 % 1018,0 hPa 0,0 l/m 0 min 0 min 0 W/m 2,3 km/h (1 Bft) 95,88 %
18.06.2018 01:40 16,4 C 15,6 C 15,6 C 73 % 1018,0 hPa 0,0 l/m 0 min 0 min 0 W/m 4,5 km/h (1 Bft) 95,74 %
18.06.2018 01:42 16,4 C 15,6 C 15,6 C 73 % 1017,9 hPa 0,0 l/m 0 min 0 min 0 W/m 4,5 km/h (1 Bft) 95,65 %
18.06.2018 01:44 16,4 C 15,6 C 15,6 C 73 % 1017,9 hPa 0,0 l/m 0 min 0 min 0 W/m 2,3 km/h (1 Bft) 95,74 %
18.06.2018 01:46 16,4 C 15,6 C 15,6 C 73 % 1018,0 hPa 0,0 l/m 0 min 0 min 0 W/m 0,0 km/h (0 Bft) 95,74 %
18.06.2018 01:48 16,4 C 15,6 C 15,6 C 74 % 1018,0 hPa 0,0 l/m 0 min 0 min 0 W/m 0,0 km/h (0 Bft) 95,74 %
18.06.2018 01:50 16,4 C 15,6 C 15,6 C 74 % 1018,0 hPa 0,0 l/m 0 min 0 min 0 W/m 0,0 km/h (0 Bft) 95,74 %
18.06.2018 01:52 16,4 C 15,6 C 15,6 C 74 % 1018,0 hPa 0,0 l/m 0 min 0 min 0 W/m 0,0 km/h (0 Bft) 95,74 %
18.06.2018 01:54 16,4 C 15,6 C 15,6 C 74 % 1017,9 hPa 0,0 l/m 0 min 0 min 0 W/m 2,3 km/h (1 Bft) 93,62 %
18.06.2018 01:56 16,4 C 15,6 C 15,6 C 74 % 1018,0 hPa 0,0 l/m 0 min 0 min 0 W/m 2,3 km/h (1 Bft) 95,74 %
18.06.2018 01:58 16,4 C 15,6 C 15,6 C 74 % 1018,0 hPa 0,0 l/m 0 min 0 min 0 W/m 4,5 km/h (1 Bft) 95,74 %
18.06.2018 02:00 16,4 C 15,6 C 15,6 C 74 % 1018,1 hPa 0,0 l/m 0 min 0 min 0 W/m 4,5 km/h (1 Bft) 95,74 %
18.06.2018 02:02 16,4 C 15,6 C 15,6 C 73 % 1018,2 hPa 0,0 l/m 0 min 0 min 0 W/m 2,3 km/h (1 Bft) 93,62 %
18.06.2018 02:04 16,4 C 15,6 C 15,6 C 74 % 1018,2 hPa 0,0 l/m 0 min 0 min 0 W/m 2,3 km/h (1 Bft) 95,65 %
18.06.2018 02:06 16,4 C 15,6 C 15,6 C 74 % 1018,3 hPa 0,0 l/m 0 min 0 min 0 W/m 2,3 km/h (1 Bft) 95,74 %
18.06.2018 02:08 16,4 C 15,6 C 15,6 C 74 % 1018,2 hPa 0,0 l/m 0 min 0 min 0 W/m 2,3 km/h (1 Bft) 97,87 %
18.06.2018 02:10 16,4 C 15,6 C 15,6 C 74 % 1018,2 hPa 0,0 l/m 0 min 0 min 0 W/m 4,5 km/h (1 Bft) 97,87 %
18.06.2018 02:12 16,4 C 15,6 C 15,6 C 74 % 1018,2 hPa 0,0 l/m 0 min 0 min 0 W/m 4,5 km/h (1 Bft) 97,87 %
18.06.2018 02:14 16,3 C 15,6 C 15,6 C 74 % 1018,2 hPa 0,0 l/m 0 min 0 min 0 W/m 0,0 km/h (0 Bft) 95,74 %
18.06.2018 02:16 16,3 C 15,6 C 15,6 C 74 % 1018,1 hPa 0,0 l/m 0 min 0 min 0 W/m 0,0 km/h (0 Bft) 97,83 %
18.06.2018 02:18 16,3 C 15,6 C 15,6 C 74 % 1018,0 hPa 0,0 l/m 0 min 0 min 0 W/m 4,5 km/h (1 Bft) 97,87 %
18.06.2018 02:20 16,3 C 15,6 C 15,6 C 74 % 1017,9 hPa 0,0 l/m 0 min 0 min 0 W/m 2,3 km/h (1 Bft) 97,87 %
18.06.2018 02:22 16,3 C 15,6 C 15,6 C 74 % 1017,9 hPa 0,0 l/m 0 min 0 min 0 W/m 2,3 km/h (1 Bft) 97,87 %
18.06.2018 02:24 16,3 C 15,6 C 15,6 C 74 % 1017,9 hPa 0,0 l/m 0 min 0 min 0 W/m 4,5 km/h (1 Bft) 95,74 %
18.06.2018 02:26 16,3 C 15,6 C 15,6 C 74 % 1017,9 hPa 0,0 l/m 0 min 0 min 0 W/m 2,3 km/h (1 Bft) 95,74 %
18.06.2018 02:28 16,3 C 15,6 C 15,6 C 74 % 1017,9 hPa 0,0 l/m 0 min 0 min 0 W/m 2,3 km/h (1 Bft) 100,00 %
18.06.2018 02:30 16,3 C 15,6 C 15,6 C 74 % 1018,0 hPa 0,0 l/m 0 min 0 min 0 W/m 0,0 km/h (0 Bft) 100,00 %
18.06.2018 02:32 16,3 C 15,6 C 15,6 C 74 % 1018,0 hPa 0,0 l/m 0 min 0 min 0 W/m 2,3 km/h (1 Bft) 100,00 %
18.06.2018 02:34 16,3 C 15,6 C 15,6 C 74 % 1017,9 hPa 0,0 l/m 0 min 0 min 0 W/m 0,0 km/h (0 Bft) 100,00 %
18.06.2018 02:36 16,3 C 15,6 C 15,6 C 74 % 1017,9 hPa 0,0 l/m 0 min 0 min 0 W/m 0,0 km/h (0 Bft) 100,00 %
18.06.2018 02:38 16,3 C 15,6 C 15,6 C 74 % 1017,9 hPa 0,0 l/m 0 min 0 min 0 W/m 0,0 km/h (0 Bft) 97,87 %
18.06.2018 02:40 16,3 C 15,6 C 15,6 C 74 % 1017,9 hPa 0,0 l/m 0 min 0 min 0 W/m 4,5 km/h (1 Bft) 100,00 %
18.06.2018 02:42 16,3 C 15,6 C 15,6 C 75 % 1017,8 hPa 0,0 l/m 0 min 0 min 0 W/m 2,3 km/h (1 Bft) 97,87 %
18.06.2018 02:44 16,3 C 15,6 C 15,6 C 74 % 1017,8 hPa 0,0 l/m 0 min 0 min 0 W/m 2,3 km/h (1 Bft) 97,87 %
18.06.2018 02:46 16,3 C 15,6 C 15,6 C 74 % 1017,9 hPa 0,0 l/m 0 min 0 min 0 W/m 2,3 km/h (1 Bft) 97,87 %
18.06.2018 02:48 16,3 C 15,6 C 15,6 C 74 % 1017,9 hPa 0,0 l/m 0 min 0 min 0 W/m 0,0 km/h (0 Bft) 97,83 %
18.06.2018 02:50 16,3 C 15,6 C 15,6 C 74 % 1017,9 hPa 0,0 l/m 0 min 0 min 0 W/m 2,3 km/h (1 Bft) 95,74 %
18.06.2018 02:52 16,3 C 15,6 C 15,6 C 74 % 1017,8 hPa 0,0 l/m 0 min 0 min 0 W/m 0,0 km/h (0 Bft) 97,87 %
18.06.2018 02:54 16,3 C 15,6 C 15,6 C 74 % 1017,8 hPa 0,0 l/m 0 min 0 min 0 W/m 2,3 km/h (1 Bft) 95,74 %
18.06.2018 02:56 16,3 C 15,6 C 15,6 C 74 % 1017,8 hPa 0,0 l/m 0 min 0 min 0 W/m 0,0 km/h (0 Bft) 97,87 %
18.06.2018 02:58 16,3 C 15,6 C 15,6 C 74 % 1017,7 hPa 0,0 l/m 0 min 0 min 0 W/m 2,3 km/h (1 Bft) 97,87 %
18.06.2018 03:00 16,3 C 15,6 C 15,6 C 74 % 1017,7 hPa 0,0 l/m 0 min 0 min 0 W/m 2,3 km/h (1 Bft) 97,83 %
18.06.2018 03:02 16,3 C 15,6 C 15,6 C 74 % 1017,6 hPa 0,0 l/m 0 min 0 min 0 W/m 0,0 km/h (0 Bft) 93,62 %
18.06.2018 03:04 16,3 C 15,6 C 15,6 C 74 % 1017,5 hPa 0,0 l/m 0 min 0 min 0 W/m 0,0 km/h (0 Bft) 97,87 %
18.06.2018 03:06 16,3 C 15,6 C 15,6 C 74 % 1017,6 hPa 0,0 l/m 0 min 0 min 0 W/m 0,0 km/h (0 Bft) 97,87 %
18.06.2018 03:08 16,3 C 15,6 C 15,6 C 74 % 1017,6 hPa 0,0 l/m 0 min 0 min 0 W/m 2,3 km/h (1 Bft) 95,74 %
18.06.2018 03:10 16,3 C 15,6 C 15,6 C 75 % 1017,7 hPa 0,0 l/m 0 min 0 min 0 W/m 0,0 km/h (0 Bft) 97,87 %
18.06.2018 03:12 16,3 C 16,1 C 15,6 C 75 % 1017,8 hPa 0,0 l/m 0 min 0 min 0 W/m 0,0 km/h (0 Bft) 97,83 %
18.06.2018 03:14 16,3 C 15,6 C 15,6 C 75 % 1017,7 hPa 0,0 l/m 0 min 0 min 0 W/m 0,0 km/h (0 Bft) 97,87 %
18.06.2018 03:16 16,3 C 15,6 C 15,6 C 75 % 1017,7 hPa 0,0 l/m 0 min 0 min 0 W/m 2,3 km/h (1 Bft) 95,74 %
18.06.2018 03:18 16,3 C 15,6 C 15,6 C 75 % 1017,7 hPa 0,0 l/m 0 min 0 min 0 W/m 0,0 km/h (0 Bft) 97,87 %
18.06.2018 03:20 16,3 C 15,6 C 15,6 C 75 % 1017,6 hPa 0,0 l/m 0 min 0 min 0 W/m 2,3 km/h (1 Bft) 97,87 %
18.06.2018 03:22 16,3 C 15,6 C 15,6 C 75 % 1017,7 hPa 0,0 l/m 0 min 0 min 0 W/m 0,0 km/h (0 Bft) 97,87 %
18.06.2018 03:24 16,3 C 15,6 C 15,6 C 74 % 1017,7 hPa 0,0 l/m 0 min 0 min 0 W/m 4,5 km/h (1 Bft) 97,83 %
18.06.2018 03:26 16,3 C 15,6 C 15,6 C 75 % 1017,7 hPa 0,0 l/m 0 min 0 min 0 W/m 2,3 km/h (1 Bft) 95,74 %
18.06.2018 03:28 16,3 C 15,6 C 15,6 C 75 % 1017,7 hPa 0,0 l/m 0 min 0 min 0 W/m 4,5 km/h (1 Bft) 100,00 %
18.06.2018 03:30 16,3 C 15,6 C 15,6 C 75 % 1017,7 hPa 0,0 l/m 0 min 0 min 0 W/m 2,3 km/h (1 Bft) 97,87 %
18.06.2018 03:32 16,3 C 15,6 C 15,6 C 75 % 1017,8 hPa 0,0 l/m 0 min 0 min 0 W/m 4,5 km/h (1 Bft) 100,00 %
18.06.2018 03:34 16,3 C 15,6 C 15,6 C 75 % 1017,8 hPa 0,0 l/m 0 min 0 min 0 W/m 2,3 km/h (1 Bft) 100,00 %
18.06.2018 03:36 16,3 C 15,6 C 15,6 C 75 % 1017,8 hPa 0,0 l/m 0 min 0 min 0 W/m 2,3 km/h (1 Bft) 100,00 %
18.06.2018 03:38 16,3 C 15,6 C 15,6 C 75 % 1017,7 hPa 0,0 l/m 0 min 0 min 0 W/m 2,3 km/h (1 Bft) 100,00 %
18.06.2018 03:40 16,3 C 15,6 C 15,6 C 75 % 1017,8 hPa 0,0 l/m 0 min 0 min 0 W/m 2,3 km/h (1 Bft) 97,87 %
18.06.2018 03:42 16,3 C 15,6 C 15,6 C 75 % 1017,8 hPa 0,0 l/m 0 min 0 min 0 W/m 2,3 km/h (1 Bft) 100,00 %
18.06.2018 03:44 16,3 C 15,6 C 15,6 C 75 % 1017,8 hPa 0,0 l/m 0 min 0 min 0 W/m 2,3 km/h (1 Bft) 100,00 %
18.06.2018 03:46 16,3 C 15,6 C 15,6 C 75 % 1017,7 hPa 0,0 l/m 0 min 0 min 0 W/m 4,5 km/h (1 Bft) 100,00 %
18.06.2018 03:48 16,3 C 15,6 C 15,6 C 75 % 1017,8 hPa 0,0 l/m 0 min 0 min 0 W/m 4,5 km/h (1 Bft) 100,00 %
18.06.2018 03:50 16,3 C 15,6 C 15,6 C 75 % 1017,8 hPa 0,0 l/m 0 min 0 min 0 W/m 2,3 km/h (1 Bft) 98,36 %
18.06.2018 03:52 16,3 C 15,6 C 15,6 C 75 % 1017,7 hPa 0,0 l/m 0 min 0 min 0 W/m 2,3 km/h (1 Bft) 100,00 %
18.06.2018 03:54 16,3 C 15,6 C 15,6 C 75 % 1017,6 hPa 0,0 l/m 0 min 0 min 0 W/m 2,3 km/h (1 Bft) 100,00 %
18.06.2018 03:56 16,3 C 15,6 C 15,6 C 75 % 1017,6 hPa 0,0 l/m 0 min 0 min 0 W/m 4,5 km/h (1 Bft) 100,00 %
18.06.2018 03:58 16,3 C 15,6 C 15,0 C 76 % 1017,6 hPa 0,0 l/m 0 min 0 min 0 W/m 4,5 km/h (1 Bft) 100,00 %
18.06.2018 04:00 16,3 C 15,6 C 15,0 C 76 % 1017,7 hPa 0,0 l/m 0 min 0 min 0 W/m 2,3 km/h (1 Bft) 100,00 %
18.06.2018 04:05 16,2 C 15,6 C 15,0 C 76 % 1017,6 hPa 0,0 l/m 0 min 0 min 0 W/m 4,5 km/h (1 Bft) 100,00 %
18.06.2018 04:06 16,2 C 15,6 C 15,0 C 76 % 1017,5 hPa 0,0 l/m 0 min 0 min 0 W/m 2,3 km/h (1 Bft) 100,00 %
18.06.2018 04:08 16,2 C 15,6 C 15,0 C 76 % 1017,6 hPa 0,0 l/m 0 min 0 min 0 W/m 4,5 km/h (1 Bft) 97,87 %
18.06.2018 04:10 16,2 C 15,6 C 15,0 C 76 % 1017,5 hPa 0,0 l/m 0 min 0 min 0 W/m 6,8 km/h (2 Bft) 97,87 %
18.06.2018 04:12 16,2 C 15,6 C 15,0 C 76 % 1017,5 hPa 0,0 l/m 0 min 0 min 0 W/m 6,8 km/h (2 Bft) 97,83 %
18.06.2018 04:14 16,2 C 15,6 C 15,0 C 76 % 1017,5 hPa 0,0 l/m 0 min 0 min 0 W/m 2,3 km/h (1 Bft) 97,87 %
18.06.2018 04:16 16,2 C 15,6 C 15,0 C 76 % 1017,5 hPa 0,0 l/m 0 min 0 min 0 W/m 4,5 km/h (1 Bft) 97,87 %
18.06.2018 04:18 16,2 C 15,6 C 15,0 C 77 % 1017,5 hPa 0,0 l/m 0 min 0 min 0 W/m 6,8 km/h (2 Bft) 97,87 %
18.06.2018 04:20 16,2 C 15,6 C 15,0 C 77 % 1017,5 hPa 0,0 l/m 0 min 0 min 0 W/m 4,5 km/h (1 Bft) 97,87 %
18.06.2018 04:22 16,2 C 15,6 C 15,0 C 77 % 1017,6 hPa 0,0 l/m 0 min 0 min 0 W/m 2,3 km/h (1 Bft) 97,87 %
18.06.2018 04:24 16,2 C 15,6 C 15,0 C 77 % 1017,5 hPa 0,0 l/m 0 min 0 min 0 W/m 2,3 km/h (1 Bft) 97,83 %
18.06.2018 04:26 16,2 C 15,6 C 15,0 C 77 % 1017,5 hPa 0,0 l/m 0 min 0 min 0 W/m 4,5 km/h (1 Bft) 97,87 %
18.06.2018 04:28 16,1 C 15,6 C 15,0 C 78 % 1017,5 hPa 0,0 l/m 0 min 0 min 0 W/m 2,3 km/h (1 Bft) 97,87 %
18.06.2018 04:30 16,1 C 15,6 C 15,0 C 78 % 1017,4 hPa 0,0 l/m 0 min 0 min 0 W/m 2,3 km/h (1 Bft) 97,87 %
18.06.2018 04:32 16,1 C 15,6 C 15,0 C 78 % 1017,4 hPa 0,0 l/m 0 min 0 min 0 W/m 6,8 km/h (2 Bft) 97,87 %
18.06.2018 04:34 16,1 C 15,0 C 15,0 C 78 % 1017,5 hPa 0,0 l/m 0 min 0 min 0 W/m 4,5 km/h (1 Bft) 97,87 %
18.06.2018 04:36 16,1 C 15,0 C 15,0 C 78 % 1017,4 hPa 0,0 l/m 0 min 0 min 0 W/m 2,3 km/h (1 Bft) 97,83 %
18.06.2018 04:38 16,1 C 15,0 C 15,0 C 78 % 1017,5 hPa 0,0 l/m 0 min 0 min 0 W/m 4,5 km/h (1 Bft) 97,87 %
18.06.2018 04:40 16,1 C 15,0 C 15,0 C 79 % 1017,5 hPa 0,0 l/m 0 min 0 min 0 W/m 0,0 km/h (0 Bft) 95,74 %
18.06.2018 04:42 16,1 C 15,0 C 15,0 C 79 % 1017,5 hPa 0,0 l/m 0 min 0 min 0 W/m 4,5 km/h (1 Bft) 97,87 %
18.06.2018 04:44 16,1 C 15,0 C 15,0 C 79 % 1017,5 hPa 0,0 l/m 0 min 0 min 0 W/m 4,5 km/h (1 Bft) 97,87 %
18.06.2018 04:46 16,0 C 15,0 C 15,0 C 79 % 1017,4 hPa 0,0 l/m 0 min 0 min 0 W/m 6,8 km/h (2 Bft) 93,62 %
18.06.2018 04:48 16,0 C 15,0 C 15,0 C 79 % 1017,4 hPa 0,0 l/m 0 min 0 min 0 W/m 4,5 km/h (1 Bft) 95,65 %
18.06.2018 04:50 16,0 C 15,0 C 15,0 C 79 % 1017,4 hPa 0,0 l/m 0 min 0 min 0 W/m 9,0 km/h (2 Bft) 91,49 %
18.06.2018 04:52 15,9 C 15,0 C 15,0 C 79 % 1017,4 hPa 0,0 l/m 0 min 0 min 0 W/m 4,5 km/h (1 Bft) 95,74 %
18.06.2018 04:54 15,9 C 15,0 C 15,0 C 79 % 1017,4 hPa 0,0 l/m 0 min 0 min 0 W/m 6,8 km/h (2 Bft) 93,62 %
18.06.2018 04:56 15,9 C 15,0 C 15,0 C 79 % 1017,4 hPa 0,0 l/m 0 min 0 min 0 W/m 4,5 km/h (1 Bft) 95,74 %
18.06.2018 04:58 15,9 C 15,0 C 15,0 C 80 % 1017,5 hPa 0,0 l/m 0 min 0 min 0 W/m 4,5 km/h (1 Bft) 95,74 %
18.06.2018 05:00 15,9 C 15,0 C 15,0 C 80 % 1017,5 hPa 0,0 l/m 0 min 0 min 0 W/m 4,5 km/h (1 Bft) 95,65 %
18.06.2018 05:02 15,9 C 15,0 C 15,0 C 80 % 1017,5 hPa 0,0 l/m 0 min 0 min 0 W/m 6,8 km/h (2 Bft) 95,74 %
18.06.2018 05:04 15,9 C 15,0 C 15,0 C 80 % 1017,4 hPa 0,0 l/m 0 min 0 min 0 W/m 6,8 km/h (2 Bft) 95,74 %
18.06.2018 05:06 15,9 C 15,0 C 15,0 C 80 % 1017,5 hPa 0,0 l/m 0 min 0 min 0 W/m 4,5 km/h (1 Bft) 95,74 %
18.06.2018 05:08 15,9 C 15,0 C 15,0 C 80 % 1017,5 hPa 0,0 l/m 0 min 0 min 0 W/m 4,5 km/h (1 Bft) 95,74 %
18.06.2018 05:10 15,8 C 15,0 C 15,0 C 80 % 1017,5 hPa 0,0 l/m 0 min 0 min 0 W/m 4,5 km/h (1 Bft) 95,74 %
18.06.2018 05:12 15,8 C 15,0 C 15,0 C 80 % 1017,5 hPa 0,0 l/m 0 min 0 min 0 W/m 4,5 km/h (1 Bft) 95,65 %
18.06.2018 05:14 15,8 C 15,0 C 15,0 C 80 % 1017,6 hPa 0,0 l/m 0 min 0 min 0 W/m 4,5 km/h (1 Bft) 93,62 %
18.06.2018 05:16 15,8 C 15,0 C 15,0 C 80 % 1017,6 hPa 0,0 l/m 0 min 0 min 0 W/m 6,8 km/h (2 Bft) 95,74 %
18.06.2018 05:18 15,8 C 15,0 C 15,0 C 81 % 1017,6 hPa 0,0 l/m 0 min 0 min 0 W/m 2,3 km/h (1 Bft) 100,00 %
18.06.2018 05:20 15,8 C 15,0 C 15,0 C 81 % 1017,6 hPa 0,0 l/m 0 min 0 min 0 W/m 4,5 km/h (1 Bft) 97,87 %
18.06.2018 05:22 15,8 C 15,0 C 15,0 C 81 % 1017,5 hPa 0,0 l/m 0 min 0 min 0 W/m 6,8 km/h (2 Bft) 97,87 %
18.06.2018 05:24 15,8 C 15,0 C 15,0 C 81 % 1017,5 hPa 0,0 l/m 0 min 0 min 5 W/m 6,8 km/h (2 Bft) 97,83 %
18.06.2018 05:26 15,8 C 15,0 C 15,0 C 81 % 1017,6 hPa 0,0 l/m 0 min 0 min 5 W/m 6,8 km/h (2 Bft) 97,87 %
18.06.2018 05:28 15,8 C 15,0 C 15,0 C 81 % 1017,6 hPa 0,0 l/m 0 min 0 min 5 W/m 2,3 km/h (1 Bft) 97,87 %
18.06.2018 05:30 15,8 C 15,0 C 15,0 C 82 % 1017,6 hPa 0,0 l/m 0 min 0 min 5 W/m 6,8 km/h (2 Bft) 95,74 %
18.06.2018 05:32 15,7 C 15,0 C 15,0 C 82 % 1017,6 hPa 0,0 l/m 0 min 0 min 7 W/m 4,5 km/h (1 Bft) 93,62 %
18.06.2018 05:34 15,7 C 15,0 C 15,0 C 82 % 1017,7 hPa 0,0 l/m 0 min 0 min 9 W/m 4,5 km/h (1 Bft) 95,74 %
18.06.2018 05:35 15,7 C 15,0 C 15,0 C 82 % 1017,6 hPa 0,0 l/m 0 min 0 min 8 W/m 4,5 km/h (1 Bft) 97,37 %
18.06.2018 05:40 15,7 C 15,0 C 15,0 C 82 % 1017,6 hPa 0,0 l/m 0 min 0 min 10 W/m 2,3 km/h (1 Bft) 90,91 %
18.06.2018 05:42 15,7 C 15,0 C 15,0 C 82 % 1017,7 hPa 0,0 l/m 0 min 0 min 12 W/m 2,3 km/h (1 Bft) 95,74 %
18.06.2018 05:44 15,7 C 15,0 C 15,0 C 82 % 1017,6 hPa 0,0 l/m 0 min 0 min 13 W/m 2,3 km/h (1 Bft) 93,62 %
18.06.2018 05:46 15,7 C 15,0 C 15,0 C 82 % 1017,7 hPa 0,0 l/m 0 min 0 min 12 W/m 6,8 km/h (2 Bft) 93,62 %
18.06.2018 05:48 15,7 C 15,0 C 15,0 C 82 % 1017,7 hPa 0,0 l/m 0 min 0 min 11 W/m 4,5 km/h (1 Bft) 93,62 %
18.06.2018 05:50 15,7 C 15,0 C 15,0 C 82 % 1017,7 hPa 0,0 l/m 0 min 0 min 13 W/m 6,8 km/h (2 Bft) 95,74 %
18.06.2018 05:52 15,7 C 15,0 C 15,0 C 83 % 1017,7 hPa 0,0 l/m 0 min 0 min 16 W/m 4,5 km/h (1 Bft) 95,92 %
18.06.2018 05:54 15,7 C 15,0 C 15,0 C 83 % 1017,7 hPa 0,0 l/m 0 min 0 min 21 W/m 2,3 km/h (1 Bft) 97,96 %
18.06.2018 05:56 15,7 C 15,6 C 15,0 C 83 % 1017,8 hPa 0,0 l/m 0 min 0 min 25 W/m 4,5 km/h (1 Bft) 97,83 %
18.06.2018 05:58 15,7 C 15,6 C 15,0 C 83 % 1017,8 hPa 0,0 l/m 0 min 0 min 25 W/m 2,3 km/h (1 Bft) 93,62 %
18.06.2018 06:00 15,7 C 15,6 C 15,0 C 83 % 1017,9 hPa 0,0 l/m 0 min 0 min 22 W/m 4,5 km/h (1 Bft) 95,74 %
18.06.2018 06:02 15,7 C 15,6 C 15,0 C 83 % 1017,9 hPa 0,0 l/m 0 min 0 min 19 W/m 4,5 km/h (1 Bft) 95,74 %
18.06.2018 06:04 15,7 C 15,6 C 15,0 C 83 % 1017,9 hPa 0,0 l/m 0 min 0 min 19 W/m 4,5 km/h (1 Bft) 95,74 %
18.06.2018 06:07 15,7 C 15,6 C 15,0 C 83 % 1017,8 hPa 0,0 l/m 0 min 0 min 21 W/m 4,5 km/h (1 Bft) 95,74 %
18.06.2018 06:08 15,7 C 15,6 C 15,0 C 83 % 1017,8 hPa 0,0 l/m 0 min 0 min 21 W/m 4,5 km/h (1 Bft) 96,77 %
18.06.2018 06:10 15,7 C 15,6 C 15,0 C 83 % 1017,9 hPa 0,0 l/m 0 min 0 min 23 W/m 4,5 km/h (1 Bft) 97,87 %
18.06.2018 06:12 15,7 C 15,6 C 15,0 C 83 % 1017,9 hPa 0,0 l/m 0 min 0 min 24 W/m 2,3 km/h (1 Bft) 97,87 %
18.06.2018 06:14 15,7 C 15,6 C 15,0 C 83 % 1017,9 hPa 0,0 l/m 0 min 0 min 25 W/m 0,0 km/h (0 Bft) 97,87 %
18.06.2018 06:16 15,7 C 15,6 C 15,0 C 83 % 1017,9 hPa 0,0 l/m 0 min 0 min 25 W/m 4,5 km/h (1 Bft) 95,74 %
18.06.2018 06:18 15,7 C 15,6 C 15,0 C 84 % 1017,9 hPa 0,0 l/m 0 min 0 min 22 W/m 0,0 km/h (0 Bft) 97,87 %
18.06.2018 06:20 15,7 C 15,6 C 15,0 C 84 % 1017,9 hPa 0,0 l/m 0 min 0 min 19 W/m 2,3 km/h (1 Bft) 97,83 %
18.06.2018 06:22 15,7 C 15,6 C 15,0 C 84 % 1017,9 hPa 0,0 l/m 0 min 0 min 21 W/m 4,5 km/h (1 Bft) 100,00 %
18.06.2018 06:24 15,7 C 15,6 C 15,0 C 84 % 1018,0 hPa 0,0 l/m 0 min 0 min 20 W/m 4,5 km/h (1 Bft) 100,00 %
18.06.2018 06:26 15,8 C 15,6 C 15,0 C 84 % 1018,0 hPa 0,0 l/m 0 min 0 min 21 W/m 4,5 km/h (1 Bft) 100,00 %
18.06.2018 06:28 15,8 C 15,6 C 15,0 C 84 % 1017,9 hPa 0,0 l/m 0 min 0 min 23 W/m 2,3 km/h (1 Bft) 100,00 %
18.06.2018 06:30 15,8 C 15,6 C 15,0 C 84 % 1017,9 hPa 0,0 l/m 0 min 0 min 25 W/m 4,5 km/h (1 Bft) 97,83 %
18.06.2018 06:32 15,8 C 15,6 C 15,0 C 84 % 1017,9 hPa 0,0 l/m 0 min 0 min 32 W/m 2,3 km/h (1 Bft) 100,00 %
18.06.2018 06:34 15,8 C 15,6 C 15,0 C 84 % 1017,9 hPa 0,0 l/m 0 min 0 min 37 W/m 2,3 km/h (1 Bft) 100,00 %
18.06.2018 06:36 15,8 C 15,6 C 15,0 C 84 % 1017,9 hPa 0,0 l/m 0 min 0 min 41 W/m 4,5 km/h (1 Bft) 97,87 %
18.06.2018 06:38 15,8 C 15,6 C 15,0 C 84 % 1017,9 hPa 0,0 l/m 0 min 0 min 42 W/m 6,8 km/h (2 Bft) 100,00 %
18.06.2018 06:40 15,8 C 15,6 C 15,0 C 84 % 1017,9 hPa 0,0 l/m 0 min 0 min 42 W/m 4,5 km/h (1 Bft) 100,00 %
18.06.2018 06:42 15,8 C 15,6 C 15,0 C 84 % 1017,9 hPa 0,0 l/m 0 min 0 min 42 W/m 6,8 km/h (2 Bft) 100,00 %
18.06.2018 06:44 15,9 C 15,6 C 15,0 C 84 % 1017,9 hPa 0,0 l/m 0 min 0 min 44 W/m 6,8 km/h (2 Bft) 100,00 %
18.06.2018 06:46 15,9 C 15,6 C 15,0 C 84 % 1017,9 hPa 0,0 l/m 0 min 0 min 47 W/m 2,3 km/h (1 Bft) 97,87 %
18.06.2018 06:48 15,9 C 16,1 C 15,6 C 83 % 1017,9 hPa 0,0 l/m 0 min 0 min 53 W/m 4,5 km/h (1 Bft) 100,00 %
18.06.2018 06:50 15,9 C 16,1 C 15,6 C 83 % 1017,9 hPa 0,0 l/m 0 min 0 min 61 W/m 4,5 km/h (1 Bft) 100,00 %
18.06.2018 06:52 15,9 C 16,1 C 15,6 C 84 % 1017,9 hPa 0,0 l/m 0 min 0 min 71 W/m 6,8 km/h (2 Bft) 100,00 %
18.06.2018 06:54 15,9 C 16,1 C 15,6 C 84 % 1017,9 hPa 0,0 l/m 0 min 0 min 84 W/m 6,8 km/h (2 Bft) 100,00 %
18.06.2018 06:56 16,0 C 16,1 C 15,6 C 84 % 1018,0 hPa 0,0 l/m 0 min 0 min 90 W/m 6,8 km/h (2 Bft) 100,00 %
18.06.2018 06:58 16,0 C 16,1 C 15,6 C 84 % 1017,9 hPa 0,0 l/m 0 min 0 min 84 W/m 4,5 km/h (1 Bft) 100,00 %
18.06.2018 07:00 16,1 C 16,1 C 15,6 C 84 % 1017,9 hPa 0,0 l/m 0 min 0 min 80 W/m 4,5 km/h (1 Bft) 97,87 %
18.06.2018 07:02 16,1 C 16,1 C 15,6 C 83 % 1017,9 hPa 0,0 l/m 0 min 0 min 77 W/m 4,5 km/h (1 Bft) 97,87 %
18.06.2018 07:04 16,1 C 16,1 C 15,6 C 84 % 1017,9 hPa 0,0 l/m 0 min 0 min 74 W/m 4,5 km/h (1 Bft) 97,87 %
18.06.2018 07:06 16,1 C 16,1 C 15,6 C 83 % 1017,9 hPa 0,0 l/m 0 min 0 min 74 W/m 4,5 km/h (1 Bft) 95,65 %
18.06.2018 07:08 16,1 C 16,7 C 15,6 C 83 % 1017,9 hPa 0,0 l/m 0 min 0 min 78 W/m 2,3 km/h (1 Bft) 100,00 %
18.06.2018 07:10 16,1 C 16,7 C 15,6 C 83 % 1017,9 hPa 0,0 l/m 0 min 0 min 82 W/m 4,5 km/h (1 Bft) 97,87 %
18.06.2018 07:12 16,2 C 16,7 C 15,6 C 83 % 1017,9 hPa 0,0 l/m 0 min 0 min 86 W/m 4,5 km/h (1 Bft) 97,87 %
18.06.2018 07:14 16,2 C 16,7 C 15,6 C 83 % 1017,9 hPa 0,0 l/m 0 min 0 min 89 W/m 6,8 km/h (2 Bft) 100,00 %
18.06.2018 07:16 16,2 C 16,7 C 15,6 C 83 % 1018,0 hPa 0,0 l/m 0 min 0 min 94 W/m 4,5 km/h (1 Bft) 97,87 %
18.06.2018 07:18 16,3 C 16,7 C 15,6 C 84 % 1017,9 hPa 0,0 l/m 0 min 0 min 92 W/m 2,3 km/h (1 Bft) 100,00 %
18.06.2018 07:20 16,3 C 16,7 C 15,6 C 84 % 1017,9 hPa 0,0 l/m 0 min 0 min 93 W/m 2,3 km/h (1 Bft) 97,87 %
18.06.2018 07:22 16,3 C 16,7 C 15,6 C 83 % 1017,9 hPa 0,0 l/m 0 min 0 min 103 W/m 6,8 km/h (2 Bft) 97,87 %
18.06.2018 07:24 16,3 C 16,7 C 15,6 C 83 % 1017,9 hPa 0,0 l/m 0 min 0 min 108 W/m 2,3 km/h (1 Bft) 97,87 %
18.06.2018 07:26 16,3 C 16,7 C 15,6 C 83 % 1017,8 hPa 0,0 l/m 0 min 0 min 116 W/m 4,5 km/h (1 Bft) 97,87 %
18.06.2018 07:28 16,4 C 16,7 C 16,1 C 83 % 1017,8 hPa 0,0 l/m 0 min 0 min 115 W/m 6,8 km/h (2 Bft) 97,87 %
18.06.2018 07:30 16,4 C 16,7 C 16,1 C 83 % 1017,9 hPa 0,0 l/m 0 min 0 min 108 W/m 4,5 km/h (1 Bft) 97,83 %
18.06.2018 07:32 16,4 C 16,7 C 16,1 C 83 % 1017,9 hPa 0,0 l/m 0 min 0 min 104 W/m 2,3 km/h (1 Bft) 97,87 %
18.06.2018 07:34 16,4 C 16,7 C 16,1 C 83 % 1017,9 hPa 0,0 l/m 0 min 0 min 97 W/m 2,3 km/h (1 Bft) 97,87 %
18.06.2018 07:36 16,5 C 16,7 C 16,1 C 83 % 1017,9 hPa 0,0 l/m 0 min 0 min 91 W/m 6,8 km/h (2 Bft) 95,74 %
18.06.2018 07:38 16,6 C 16,7 C 16,1 C 83 % 1018,0 hPa 0,0 l/m 0 min 0 min 106 W/m 6,8 km/h (2 Bft) 97,87 %
18.06.2018 07:40 16,6 C 17,2 C 16,1 C 83 % 1017,9 hPa 0,0 l/m 0 min 0 min 120 W/m 4,5 km/h (1 Bft) 97,83 %
18.06.2018 07:42 16,6 C 17,2 C 16,1 C 83 % 1018,0 hPa 0,0 l/m 0 min 0 min 121 W/m 4,5 km/h (1 Bft) 97,87 %
18.06.2018 07:44 16,7 C 17,2 C 16,1 C 83 % 1018,0 hPa 0,0 l/m 0 min 0 min 115 W/m 6,8 km/h (2 Bft) 97,87 %
18.06.2018 07:46 16,7 C 17,2 C 16,1 C 83 % 1018,0 hPa 0,0 l/m 0 min 0 min 141 W/m 9,0 km/h (2 Bft) 97,87 %
18.06.2018 07:48 16,8 C 17,2 C 16,1 C 83 % 1017,9 hPa 0,0 l/m 2 min 0 min 181 W/m 6,8 km/h (2 Bft) 97,87 %
18.06.2018 07:50 16,8 C 17,8 C 16,1 C 83 % 1018,0 hPa 0,0 l/m 2 min 0 min 182 W/m 9,0 km/h (2 Bft) 97,87 %
18.06.2018 07:52 16,9 C 17,8 C 16,7 C 83 % 1017,9 hPa 0,0 l/m 2 min 0 min 186 W/m 4,5 km/h (1 Bft) 97,83 %
18.06.2018 07:54 16,9 C 17,8 C 16,7 C 82 % 1018,0 hPa 0,0 l/m 0 min 0 min 170 W/m 4,5 km/h (1 Bft) 97,87 %
18.06.2018 07:56 17,0 C 17,8 C 16,7 C 82 % 1018,0 hPa 0,0 l/m 0 min 0 min 158 W/m 6,8 km/h (2 Bft) 95,74 %
18.06.2018 07:58 17,1 C 17,8 C 16,7 C 82 % 1017,9 hPa 0,0 l/m 0 min 0 min 157 W/m 6,8 km/h (2 Bft) 97,87 %
18.06.2018 08:00 17,1 C 17,8 C 16,7 C 83 % 1018,0 hPa 0,0 l/m 0 min 0 min 151 W/m 9,0 km/h (2 Bft) 97,87 %
18.06.2018 08:02 17,2 C 17,2 C 16,7 C 83 % 1017,9 hPa 0,0 l/m 0 min 0 min 145 W/m 6,8 km/h (2 Bft) 97,87 %
18.06.2018 08:04 17,2 C 17,8 C 16,7 C 83 % 1017,9 hPa 0,0 l/m 0 min 0 min 150 W/m 6,8 km/h (2 Bft) 97,83 %
18.06.2018 08:06 17,2 C 17,8 C 16,7 C 83 % 1017,9 hPa 0,0 l/m 0 min 0 min 155 W/m 6,8 km/h (2 Bft) 97,87 %
18.06.2018 08:08 17,3 C 17,8 C 16,7 C 83 % 1017,9 hPa 0,0 l/m 0 min 0 min 155 W/m 6,8 km/h (2 Bft) 95,74 %
18.06.2018 08:10 17,3 C 17,2 C 16,7 C 83 % 1018,0 hPa 0,0 l/m 0 min 0 min 151 W/m 9,0 km/h (2 Bft) 97,87 %
18.06.2018 08:12 17,3 C 17,2 C 16,7 C 83 % 1017,9 hPa 0,0 l/m 0 min 0 min 132 W/m 9,0 km/h (2 Bft) 98,00 %
18.06.2018 08:14 17,3 C 17,2 C 16,7 C 83 % 1017,9 hPa 0,0 l/m 0 min 0 min 112 W/m 9,0 km/h (2 Bft) 100,00 %
18.06.2018 08:16 17,3 C 17,2 C 16,1 C 83 % 1017,9 hPa 0,0 l/m 0 min 0 min 94 W/m 4,5 km/h (1 Bft) 95,65 %
18.06.2018 08:18 17,3 C 17,2 C 16,1 C 83 % 1017,9 hPa 0,0 l/m 0 min 0 min 114 W/m 4,5 km/h (1 Bft) 97,87 %
18.06.2018 08:20 17,3 C 17,2 C 16,1 C 84 % 1018,0 hPa 0,0 l/m 0 min 0 min 151 W/m 6,8 km/h (2 Bft) 95,74 %
18.06.2018 08:22 17,3 C 17,2 C 16,7 C 83 % 1017,9 hPa 0,0 l/m 0 min 0 min 169 W/m 9,0 km/h (2 Bft) 95,74 %
18.06.2018 08:24 17,3 C 17,2 C 16,1 C 83 % 1017,9 hPa 0,0 l/m 0 min 0 min 165 W/m 6,8 km/h (2 Bft) 91,43 %
18.06.2018 08:26 17,3 C 17,2 C 16,7 C 83 % 1017,9 hPa 0,0 l/m 0 min 0 min 170 W/m 6,8 km/h (2 Bft) 95,74 %
18.06.2018 08:28 17,3 C 17,8 C 16,7 C 83 % 1017,9 hPa 0,0 l/m 0 min 0 min 171 W/m 9,0 km/h (2 Bft) 95,74 %
18.06.2018 08:30 17,4 C 17,8 C 16,7 C 83 % 1017,9 hPa 0,0 l/m 0 min 0 min 172 W/m 4,5 km/h (1 Bft) 95,65 %
18.06.2018 08:32 17,4 C 17,8 C 16,7 C 83 % 1017,9 hPa 0,0 l/m 0 min 0 min 177 W/m 6,8 km/h (2 Bft) 95,74 %
18.06.2018 08:34 17,4 C 17,8 C 16,7 C 82 % 1017,9 hPa 0,0 l/m 0 min 0 min 195 W/m 9,0 km/h (2 Bft) 95,74 %
18.06.2018 08:36 17,4 C 18,3 C 16,7 C 82 % 1017,9 hPa 0,0 l/m 0 min 0 min 216 W/m 4,5 km/h (1 Bft) 95,74 %
18.06.2018 08:38 17,4 C 18,3 C 16,7 C 82 % 1018,1 hPa 0,0 l/m 0 min 0 min 226 W/m 9,0 km/h (2 Bft) 93,62 %
18.06.2018 08:40 17,4 C 18,3 C 16,7 C 81 % 1018,1 hPa 0,0 l/m 0 min 0 min 206 W/m 6,8 km/h (2 Bft) 95,74 %
18.06.2018 08:42 17,5 C 18,9 C 16,7 C 81 % 1018,0 hPa 0,0 l/m 0 min 0 min 229 W/m 6,8 km/h (2 Bft) 93,48 %
18.06.2018 08:44 17,6 C 18,9 C 17,2 C 81 % 1018,0 hPa 0,0 l/m 2 min 0 min 295 W/m 6,8 km/h (2 Bft) 95,74 %
18.06.2018 08:46 17,6 C 18,9 C 17,2 C 81 % 1018,0 hPa 0,0 l/m 2 min 0 min 296 W/m 6,8 km/h (2 Bft) 95,74 %
18.06.2018 08:48 17,7 C 18,9 C 17,2 C 81 % 1018,0 hPa 0,0 l/m 0 min 0 min 235 W/m 6,8 km/h (2 Bft) 93,62 %
18.06.2018 08:50 17,7 C 18,9 C 17,2 C 80 % 1018,0 hPa 0,0 l/m 0 min 0 min 234 W/m 11,3 km/h (2 Bft) 95,74 %
18.06.2018 08:52 17,8 C 18,9 C 17,2 C 80 % 1018,0 hPa 0,0 l/m 0 min 0 min 210 W/m 9,0 km/h (2 Bft) 94,83 %
18.06.2018 08:54 17,8 C 18,9 C 17,2 C 80 % 1018,0 hPa 0,0 l/m 0 min 0 min 192 W/m 11,3 km/h (2 Bft) 97,14 %
18.06.2018 08:56 17,8 C 18,9 C 17,2 C 80 % 1018,2 hPa 0,0 l/m 0 min 0 min 199 W/m 15,8 km/h (3 Bft) 95,74 %
18.06.2018 08:58 17,9 C 18,9 C 17,2 C 80 % 1018,0 hPa 0,0 l/m 0 min 0 min 213 W/m 11,3 km/h (2 Bft) 95,74 %
18.06.2018 09:00 17,9 C 18,9 C 17,2 C 80 % 1018,0 hPa 0,0 l/m 0 min 0 min 222 W/m 6,8 km/h (2 Bft) 97,87 %
18.06.2018 09:02 18,0 C 18,9 C 17,2 C 80 % 1018,0 hPa 0,0 l/m 0 min 0 min 218 W/m 6,8 km/h (2 Bft) 93,62 %
18.06.2018 09:04 18,1 C 18,9 C 17,2 C 79 % 1018,0 hPa 0,0 l/m 0 min 0 min 210 W/m 9,0 km/h (2 Bft) 97,87 %
18.06.2018 09:06 18,1 C 18,9 C 17,2 C 79 % 1018,0 hPa 0,0 l/m 0 min 0 min 211 W/m 4,5 km/h (1 Bft) 97,83 %
18.06.2018 09:08 18,1 C 18,9 C 17,2 C 79 % 1018,0 hPa 0,0 l/m 0 min 0 min 229 W/m 6,8 km/h (2 Bft) 97,87 %
18.06.2018 09:10 18,2 C 18,9 C 17,2 C 79 % 1018,0 hPa 0,0 l/m 0 min 0 min 231 W/m 13,5 km/h (3 Bft) 97,87 %
18.06.2018 09:12 18,2 C 18,9 C 17,2 C 79 % 1018,1 hPa 0,0 l/m 0 min 0 min 229 W/m 4,5 km/h (1 Bft) 95,74 %
18.06.2018 09:14 18,2 C 18,9 C 17,2 C 79 % 1018,2 hPa 0,0 l/m 0 min 0 min 254 W/m 9,0 km/h (2 Bft) 97,87 %
18.06.2018 09:16 18,3 C 19,4 C 17,8 C 79 % 1018,1 hPa 0,0 l/m 0 min 0 min 277 W/m 9,0 km/h (2 Bft) 97,87 %
18.06.2018 09:18 18,3 C 19,4 C 17,8 C 79 % 1018,1 hPa 0,0 l/m 0 min 0 min 266 W/m 6,8 km/h (2 Bft) 100,00 %
18.06.2018 09:20 18,4 C 19,4 C 17,8 C 78 % 1018,1 hPa 0,0 l/m 0 min 0 min 232 W/m 6,8 km/h (2 Bft) 100,00 %
18.06.2018 09:22 18,4 C 18,9 C 17,8 C 78 % 1018,3 hPa 0,0 l/m 0 min 0 min 190 W/m 9,0 km/h (2 Bft) 97,87 %
18.06.2018 09:24 18,4 C 18,9 C 17,2 C 78 % 1018,2 hPa 0,0 l/m 0 min 0 min 158 W/m 9,0 km/h (2 Bft) 100,00 %
18.06.2018 09:26 18,5 C 18,9 C 17,2 C 78 % 1018,1 hPa 0,0 l/m 0 min 0 min 156 W/m 9,0 km/h (2 Bft) 97,87 %
18.06.2018 09:28 18,5 C 18,9 C 17,2 C 78 % 1018,2 hPa 0,0 l/m 0 min 0 min 171 W/m 11,3 km/h (2 Bft) 100,00 %
18.06.2018 09:30 18,5 C 18,9 C 17,2 C 78 % 1018,3 hPa 0,0 l/m 0 min 0 min 181 W/m 11,3 km/h (2 Bft) 100,00 %
18.06.2018 09:32 18,5 C 18,9 C 17,2 C 77 % 1018,2 hPa 0,0 l/m 0 min 0 min 204 W/m 6,8 km/h (2 Bft) 97,87 %
18.06.2018 09:34 18,6 C 18,9 C 17,2 C 78 % 1018,3 hPa 0,0 l/m 0 min 0 min 241 W/m 6,8 km/h (2 Bft) 97,87 %
18.06.2018 09:36 18,6 C 19,4 C 17,8 C 78 % 1018,4 hPa 0,0 l/m 0 min 0 min 271 W/m 9,0 km/h (2 Bft) 97,87 %
18.06.2018 09:38 18,6 C 19,4 C 17,8 C 78 % 1018,3 hPa 0,0 l/m 0 min 0 min 271 W/m 4,5 km/h (1 Bft) 100,00 %
18.06.2018 09:40 18,6 C 19,4 C 17,8 C 78 % 1018,3 hPa 0,0 l/m 0 min 0 min 309 W/m 6,8 km/h (2 Bft) 100,00 %
18.06.2018 09:42 18,7 C 20,0 C 17,8 C 78 % 1018,3 hPa 0,0 l/m 2 min 0 min 376 W/m 9,0 km/h (2 Bft) 100,00 %
18.06.2018 09:44 18,7 C 20,0 C 17,8 C 78 % 1018,3 hPa 0,0 l/m 2 min 0 min 403 W/m 9,0 km/h (2 Bft) 100,00 %
18.06.2018 09:46 18,8 C 20,6 C 18,3 C 78 % 1018,2 hPa 0,0 l/m 2 min 0 min 360 W/m 6,8 km/h (2 Bft) 100,00 %
18.06.2018 09:48 18,8 C 20,0 C 18,3 C 78 % 1018,3 hPa 0,0 l/m 2 min 0 min 428 W/m 11,3 km/h (2 Bft) 100,00 %
18.06.2018 09:50 18,9 C 20,0 C 18,3 C 77 % 1018,2 hPa 0,0 l/m 0 min 0 min 296 W/m 9,0 km/h (2 Bft) 100,00 %
18.06.2018 09:52 18,9 C 20,0 C 18,3 C 76 % 1018,1 hPa 0,0 l/m 0 min 0 min 284 W/m 6,8 km/h (2 Bft) 100,00 %
18.06.2018 09:54 19,0 C 20,0 C 18,3 C 77 % 1018,1 hPa 0,0 l/m 2 min 0 min 355 W/m 6,8 km/h (2 Bft) 100,00 %
18.06.2018 09:56 19,1 C 20,0 C 18,3 C 77 % 1018,2 hPa 0,0 l/m 2 min 0 min 389 W/m 9,0 km/h (2 Bft) 100,00 %
18.06.2018 09:58 19,1 C 20,6 C 18,3 C 77 % 1018,2 hPa 0,0 l/m 2 min 0 min 384 W/m 9,0 km/h (2 Bft) 100,00 %
18.06.2018 10:00 19,2 C 20,6 C 18,3 C 77 % 1018,1 hPa 0,0 l/m 2 min 0 min 367 W/m 9,0 km/h (2 Bft) 100,00 %
18.06.2018 10:02 19,3 C 21,1 C 18,3 C 77 % 1018,2 hPa 0,0 l/m 2 min 0 min 404 W/m 6,8 km/h (2 Bft) 97,87 %
18.06.2018 10:04 19,3 C 21,1 C 18,9 C 77 % 1018,2 hPa 0,0 l/m 2 min 0 min 430 W/m 9,0 km/h (2 Bft) 100,00 %
18.06.2018 10:06 19,4 C 21,7 C 18,9 C 76 % 1018,2 hPa 0,0 l/m 2 min 0 min 410 W/m 9,0 km/h (2 Bft) 100,00 %
18.06.2018 10:08 19,4 C 21,1 C 18,9 C 76 % 1018,2 hPa 0,0 l/m 2 min 0 min 367 W/m 9,0 km/h (2 Bft) 100,00 %
18.06.2018 10:10 19,6 C 21,1 C 18,9 C 76 % 1018,2 hPa 0,0 l/m 2 min 0 min 374 W/m 9,0 km/h (2 Bft) 100,00 %
18.06.2018 10:12 19,6 C 21,1 C 18,9 C 76 % 1018,2 hPa 0,0 l/m 0 min 0 min 327 W/m 6,8 km/h (2 Bft) 100,00 %
18.06.2018 10:14 19,7 C 20,6 C 18,9 C 75 % 1018,2 hPa 0,0 l/m 0 min 0 min 280 W/m 9,0 km/h (2 Bft) 100,00 %
18.06.2018 10:16 19,7 C 20,6 C 18,9 C 75 % 1018,2 hPa 0,0 l/m 0 min 0 min 328 W/m 6,8 km/h (2 Bft) 100,00 %
18.06.2018 10:18 19,8 C 21,1 C 18,9 C 75 % 1018,2 hPa 0,0 l/m 2 min 0 min 431 W/m 6,8 km/h (2 Bft) 97,83 %
18.06.2018 10:20 19,8 C 21,1 C 18,9 C 75 % 1018,3 hPa 0,0 l/m 2 min 0 min 411 W/m 4,5 km/h (1 Bft) 97,87 %
18.06.2018 10:22 19,9 C 21,7 C 18,9 C 76 % 1018,3 hPa 0,0 l/m 2 min 0 min 482 W/m 9,0 km/h (2 Bft) 97,87 %
18.06.2018 10:24 19,9 C 21,7 C 18,9 C 76 % 1018,2 hPa 0,0 l/m 0 min 0 min 319 W/m 9,0 km/h (2 Bft) 97,87 %
18.06.2018 10:26 19,9 C 20,6 C 18,9 C 75 % 1018,3 hPa 0,0 l/m 0 min 0 min 220 W/m 11,3 km/h (2 Bft) 97,87 %
18.06.2018 10:28 20,0 C 20,6 C 18,9 C 74 % 1018,2 hPa 0,0 l/m 0 min 0 min 330 W/m 6,8 km/h (2 Bft) 97,83 %
18.06.2018 10:30 20,1 C 21,1 C 18,9 C 75 % 1018,2 hPa 0,0 l/m 2 min 0 min 435 W/m 13,5 km/h (3 Bft) 95,74 %
18.06.2018 10:32 20,1 C 21,7 C 18,9 C 75 % 1018,2 hPa 0,0 l/m 2 min 0 min 412 W/m 6,8 km/h (2 Bft) 97,87 %
18.06.2018 10:34 20,1 C 21,1 C 18,9 C 75 % 1018,2 hPa 0,0 l/m 2 min 0 min 393 W/m 11,3 km/h (2 Bft) 95,74 %
18.06.2018 10:36 20,2 C 21,1 C 19,4 C 75 % 1018,3 hPa 0,0 l/m 2 min 0 min 388 W/m 9,0 km/h (2 Bft) 95,74 %
18.06.2018 10:38 20,2 C 21,1 C 18,9 C 74 % 1018,2 hPa 0,0 l/m 0 min 0 min 324 W/m 6,8 km/h (2 Bft) 97,87 %
18.06.2018 10:40 20,2 C 20,6 C 18,9 C 74 % 1018,2 hPa 0,0 l/m 0 min 0 min 254 W/m 4,5 km/h (1 Bft) 100,00 %
18.06.2018 10:42 20,2 C 20,6 C 18,9 C 75 % 1018,3 hPa 0,0 l/m 0 min 0 min 244 W/m 6,8 km/h (2 Bft) 95,74 %
18.06.2018 10:44 20,2 C 20,0 C 18,9 C 74 % 1018,3 hPa 0,0 l/m 0 min 0 min 236 W/m 9,0 km/h (2 Bft) 97,87 %
18.06.2018 10:46 20,2 C 20,0 C 18,9 C 74 % 1018,3 hPa 0,0 l/m 0 min 0 min 257 W/m 9,0 km/h (2 Bft) 95,74 %
18.06.2018 10:48 20,2 C 20,0 C 18,9 C 74 % 1018,3 hPa 0,0 l/m 0 min 0 min 261 W/m 11,3 km/h (2 Bft) 95,74 %
18.06.2018 10:50 20,1 C 20,0 C 18,9 C 73 % 1018,2 hPa 0,0 l/m 0 min 0 min 254 W/m 13,5 km/h (3 Bft) 95,65 %
18.06.2018 10:52 20,1 C 20,0 C 18,9 C 73 % 1018,2 hPa 0,0 l/m 0 min 0 min 271 W/m 13,5 km/h (3 Bft) 95,74 %
18.06.2018 10:54 20,1 C 20,0 C 18,9 C 74 % 1018,1 hPa 0,0 l/m 0 min 0 min 238 W/m 11,3 km/h (2 Bft) 95,74 %
18.06.2018 10:56 20,1 C 20,0 C 18,9 C 74 % 1018,3 hPa 0,0 l/m 0 min 0 min 222 W/m 6,8 km/h (2 Bft) 95,74 %
18.06.2018 10:58 20,1 C 20,6 C 19,4 C 74 % 1018,3 hPa 0,0 l/m 0 min 0 min 263 W/m 9,0 km/h (2 Bft) 95,74 %
18.06.2018 11:00 20,1 C 20,6 C 19,4 C 74 % 1018,2 hPa 0,0 l/m 0 min 0 min 305 W/m 9,0 km/h (2 Bft) 91,49 %
18.06.2018 11:02 20,1 C 20,6 C 19,4 C 75 % 1018,2 hPa 0,0 l/m 0 min 0 min 276 W/m 9,0 km/h (2 Bft) 95,65 %
18.06.2018 11:04 20,2 C 20,6 C 19,4 C 74 % 1018,3 hPa 0,0 l/m 0 min 0 min 216 W/m 13,5 km/h (3 Bft) 95,74 %
18.06.2018 11:06 20,2 C 20,0 C 19,4 C 73 % 1018,1 hPa 0,0 l/m 0 min 0 min 229 W/m 9,0 km/h (2 Bft) 93,62 %
18.06.2018 11:08 20,2 C 20,6 C 19,4 C 74 % 1018,1 hPa 0,0 l/m 0 min 0 min 256 W/m 9,0 km/h (2 Bft) 95,74 %
18.06.2018 11:10 20,2 C 20,6 C 19,4 C 74 % 1018,2 hPa 0,0 l/m 0 min 0 min 295 W/m 13,5 km/h (3 Bft) 95,74 %
18.06.2018 11:12 20,2 C 20,6 C 19,4 C 74 % 1018,1 hPa 0,0 l/m 0 min 0 min 274 W/m 9,0 km/h (2 Bft) 97,87 %
18.06.2018 11:14 20,3 C 20,6 C 19,4 C 74 % 1018,1 hPa 0,0 l/m 0 min 0 min 278 W/m 6,8 km/h (2 Bft) 93,48 %
18.06.2018 11:16 20,3 C 21,7 C 19,4 C 74 % 1018,1 hPa 0,0 l/m 2 min 0 min 410 W/m 4,5 km/h (1 Bft) 95,74 %
18.06.2018 11:18 20,3 C 22,2 C 19,4 C 75 % 1018,1 hPa 0,0 l/m 2 min 0 min 467 W/m 9,0 km/h (2 Bft) 93,62 %
18.06.2018 11:20 20,4 C 22,8 C 20,0 C 74 % 1018,0 hPa 0,0 l/m 2 min 0 min 571 W/m 15,8 km/h (3 Bft) 95,74 %
18.06.2018 11:22 20,5 C 22,8 C 20,0 C 74 % 1018,0 hPa 0,0 l/m 2 min 0 min 556 W/m 11,3 km/h (2 Bft) 93,62 %
18.06.2018 11:24 20,6 C 23,9 C 20,6 C 74 % 1018,0 hPa 0,0 l/m 2 min 0 min 613 W/m 4,5 km/h (1 Bft) 95,74 %
18.06.2018 11:26 20,8 C 25,0 C 20,6 C 74 % 1018,0 hPa 0,0 l/m 2 min 0 min 636 W/m 9,0 km/h (2 Bft) 95,65 %
18.06.2018 11:28 20,9 C 25,6 C 20,6 C 74 % 1018,0 hPa 0,0 l/m 2 min 0 min 589 W/m 6,8 km/h (2 Bft) 95,74 %
18.06.2018 11:30 21,1 C 25,0 C 20,6 C 74 % 1017,9 hPa 0,0 l/m 2 min 0 min 504 W/m 9,0 km/h (2 Bft) 97,87 %
18.06.2018 11:32 21,2 C 23,9 C 20,6 C 72 % 1018,0 hPa 0,0 l/m 0 min 0 min 403 W/m 11,3 km/h (2 Bft) 91,49 %
18.06.2018 11:34 21,3 C 24,4 C 20,6 C 72 % 1018,0 hPa 0,0 l/m 0 min 0 min 410 W/m 11,3 km/h (2 Bft) 95,74 %
18.06.2018 11:36 21,4 C 25,0 C 20,6 C 72 % 1018,0 hPa 0,0 l/m 0 min 0 min 410 W/m 9,0 km/h (2 Bft) 93,62 %
18.06.2018 11:38 21,5 C 25,6 C 20,6 C 71 % 1017,9 hPa 0,0 l/m 0 min 0 min 410 W/m 9,0 km/h (2 Bft) 95,65 %
18.06.2018 11:40 21,7 C 25,6 C 20,6 C 70 % 1017,9 hPa 0,0 l/m 0 min 0 min 410 W/m 11,3 km/h (2 Bft) 95,74 %
18.06.2018 11:42 21,7 C 24,4 C 20,6 C 70 % 1017,9 hPa 0,0 l/m 0 min 0 min 410 W/m 11,3 km/h (2 Bft) 93,62 %
18.06.2018 11:44 21,8 C 24,4 C 20,6 C 70 % 1017,9 hPa 0,0 l/m 0 min 0 min 404 W/m 6,8 km/h (2 Bft) 95,74 %
18.06.2018 11:46 21,8 C 23,3 C 20,6 C 70 % 1017,9 hPa 0,0 l/m 0 min 0 min 330 W/m 11,3 km/h (2 Bft) 97,87 %
18.06.2018 11:48 21,9 C 22,8 C 20,6 C 70 % 1017,9 hPa 0,0 l/m 0 min 0 min 308 W/m 11,3 km/h (2 Bft) 97,87 %
18.06.2018 11:50 21,9 C 22,2 C 20,6 C 70 % 1018,0 hPa 0,0 l/m 0 min 0 min 372 W/m 18,0 km/h (3 Bft) 97,83 %
18.06.2018 11:52 21,8 C 22,8 C 20,6 C 69 % 1017,9 hPa 0,0 l/m 0 min 0 min 413 W/m 9,0 km/h (2 Bft) 97,87 %
18.06.2018 11:54 21,8 C 22,8 C 20,6 C 69 % 1017,9 hPa 0,0 l/m 0 min 0 min 406 W/m 9,0 km/h (2 Bft) 97,87 %
18.06.2018 11:56 21,9 C 22,8 C 20,6 C 70 % 1017,9 hPa 0,0 l/m 0 min 0 min 369 W/m 6,8 km/h (2 Bft) 97,87 %
18.06.2018 11:58 21,9 C 22,8 C 20,6 C 70 % 1017,9 hPa 0,0 l/m 0 min 0 min 345 W/m 11,3 km/h (2 Bft) 97,87 %
18.06.2018 12:00 21,9 C 22,2 C 20,6 C 70 % 1018,0 hPa 0,0 l/m 0 min 0 min 300 W/m 9,0 km/h (2 Bft) 97,83 %
18.06.2018 12:02 21,9 C 22,2 C 20,6 C 70 % 1018,0 hPa 0,0 l/m 0 min 0 min 292 W/m 11,3 km/h (2 Bft) 95,74 %
18.06.2018 12:04 21,8 C 22,2 C 20,0 C 69 % 1017,9 hPa 0,0 l/m 0 min 0 min 297 W/m 13,5 km/h (3 Bft) 97,87 %
18.06.2018 12:07 21,8 C 21,7 C 20,0 C 70 % 1018,0 hPa 0,0 l/m 0 min 0 min 262 W/m 11,3 km/h (2 Bft) 97,87 %
18.06.2018 12:08 21,8 C 21,7 C 20,0 C 70 % 1018,0 hPa 0,0 l/m 0 min 0 min 266 W/m 11,3 km/h (2 Bft) 96,81 %
18.06.2018 12:10 21,7 C 21,7 C 20,0 C 70 % 1018,2 hPa 0,0 l/m 0 min 0 min 260 W/m 9,0 km/h (2 Bft) 95,74 %
18.06.2018 12:12 21,7 C 21,1 C 20,0 C 70 % 1018,2 hPa 0,0 l/m 0 min 0 min 243 W/m 6,8 km/h (2 Bft) 97,83 %
18.06.2018 12:14 21,7 C 21,1 C 20,0 C 70 % 1018,2 hPa 0,0 l/m 0 min 0 min 220 W/m 9,0 km/h (2 Bft) 97,87 %
18.06.2018 12:16 21,6 C 21,1 C 20,0 C 70 % 1018,2 hPa 0,0 l/m 0 min 0 min 228 W/m 9,0 km/h (2 Bft) 97,87 %
18.06.2018 12:18 21,6 C 21,1 C 20,0 C 70 % 1018,2 hPa 0,0 l/m 0 min 0 min 259 W/m 11,3 km/h (2 Bft) 97,87 %
18.06.2018 12:20 21,6 C 21,7 C 20,0 C 70 % 1018,0 hPa 0,0 l/m 0 min 0 min 292 W/m 9,0 km/h (2 Bft) 97,87 %
18.06.2018 12:22 21,6 C 22,2 C 20,0 C 71 % 1018,0 hPa 0,0 l/m 0 min 0 min 382 W/m 9,0 km/h (2 Bft) 97,87 %
18.06.2018 12:24 21,6 C 22,2 C 20,6 C 71 % 1018,0 hPa 0,0 l/m 0 min 0 min 388 W/m 9,0 km/h (2 Bft) 100,00 %
18.06.2018 12:26 21,6 C 22,8 C 20,6 C 71 % 1017,9 hPa 0,0 l/m 0 min 0 min 394 W/m 6,8 km/h (2 Bft) 100,00 %
18.06.2018 12:28 21,6 C 23,3 C 20,6 C 71 % 1018,0 hPa 0,0 l/m 0 min 0 min 419 W/m 6,8 km/h (2 Bft) 95,74 %
18.06.2018 12:30 21,7 C 22,8 C 20,6 C 71 % 1017,9 hPa 0,0 l/m 0 min 0 min 345 W/m 6,8 km/h (2 Bft) 100,00 %
18.06.2018 12:32 21,7 C 22,2 C 20,6 C 71 % 1018,0 hPa 0,0 l/m 0 min 0 min 245 W/m 9,0 km/h (2 Bft) 100,00 %
18.06.2018 12:34 21,7 C 22,2 C 20,6 C 71 % 1017,9 hPa 0,0 l/m 0 min 0 min 238 W/m 4,5 km/h (1 Bft) 100,00 %
18.06.2018 12:36 21,7 C 22,2 C 20,6 C 71 % 1018,0 hPa 0,0 l/m 0 min 0 min 293 W/m 4,5 km/h (1 Bft) 97,83 %
18.06.2018 12:38 21,7 C 22,2 C 20,6 C 71 % 1018,0 hPa 0,0 l/m 0 min 0 min 332 W/m 11,3 km/h (2 Bft) 100,00 %
18.06.2018 12:40 21,8 C 22,2 C 20,6 C 71 % 1018,1 hPa 0,0 l/m 0 min 0 min 367 W/m 11,3 km/h (2 Bft) 100,00 %
18.06.2018 12:42 21,8 C 22,8 C 20,6 C 71 % 1018,0 hPa 0,0 l/m 0 min 0 min 376 W/m 6,8 km/h (2 Bft) 100,00 %
18.06.2018 12:44 21,8 C 22,2 C 20,6 C 71 % 1018,1 hPa 0,0 l/m 0 min 0 min 363 W/m 15,8 km/h (3 Bft) 100,00 %
18.06.2018 12:46 21,8 C 22,2 C 20,6 C 70 % 1018,0 hPa 0,0 l/m 0 min 0 min 357 W/m 11,3 km/h (2 Bft) 97,87 %
18.06.2018 12:48 21,8 C 22,2 C 20,6 C 70 % 1018,1 hPa 0,0 l/m 0 min 0 min 394 W/m 9,0 km/h (2 Bft) 100,00 %
18.06.2018 12:50 21,8 C 22,8 C 20,6 C 70 % 1018,2 hPa 0,0 l/m 0 min 0 min 430 W/m 9,0 km/h (2 Bft) 100,00 %
18.06.2018 12:52 21,8 C 22,8 C 20,6 C 71 % 1018,2 hPa 0,0 l/m 0 min 0 min 428 W/m 6,8 km/h (2 Bft) 100,00 %
18.06.2018 12:54 21,8 C 23,3 C 21,1 C 71 % 1018,2 hPa 0,0 l/m 2 min 0 min 497 W/m 11,3 km/h (2 Bft) 100,00 %
18.06.2018 12:56 21,9 C 23,3 C 21,1 C 71 % 1018,1 hPa 0,0 l/m 2 min 0 min 469 W/m 13,5 km/h (3 Bft) 100,00 %
18.06.2018 12:58 21,9 C 23,3 C 21,1 C 71 % 1018,1 hPa 0,0 l/m 0 min 0 min 362 W/m 6,8 km/h (2 Bft) 100,00 %
18.06.2018 13:00 22,0 C 22,8 C 21,1 C 71 % 1018,0 hPa 0,0 l/m 0 min 0 min 232 W/m 11,3 km/h (2 Bft) 100,00 %
18.06.2018 13:02 22,0 C 22,2 C 20,6 C 71 % 1018,0 hPa 0,0 l/m 0 min 0 min 170 W/m 4,5 km/h (1 Bft) 97,87 %
18.06.2018 13:04 22,0 C 21,7 C 20,6 C 71 % 1018,2 hPa 0,0 l/m 0 min 0 min 148 W/m 9,0 km/h (2 Bft) 100,00 %
18.06.2018 13:06 21,9 C 21,1 C 20,6 C 70 % 1018,2 hPa 0,0 l/m 0 min 0 min 168 W/m 9,0 km/h (2 Bft) 100,00 %
18.06.2018 13:08 21,9 C 21,1 C 20,6 C 71 % 1018,2 hPa 0,0 l/m 0 min 0 min 216 W/m 9,0 km/h (2 Bft) 100,00 %
18.06.2018 13:10 21,8 C 21,7 C 20,6 C 70 % 1018,2 hPa 0,0 l/m 0 min 0 min 295 W/m 13,5 km/h (3 Bft) 100,00 %
18.06.2018 13:12 21,8 C 21,7 C 20,6 C 71 % 1018,3 hPa 0,0 l/m 0 min 0 min 370 W/m 9,0 km/h (2 Bft) 100,00 %
18.06.2018 13:14 21,8 C 22,2 C 20,6 C 71 % 1018,4 hPa 0,0 l/m 0 min 0 min 392 W/m 13,5 km/h (3 Bft) 100,00 %
18.06.2018 13:16 21,7 C 22,2 C 20,6 C 71 % 1018,2 hPa 0,0 l/m 0 min 0 min 408 W/m 6,8 km/h (2 Bft) 100,00 %
18.06.2018 13:18 21,8 C 22,2 C 20,6 C 72 % 1018,3 hPa 0,0 l/m 0 min 0 min 441 W/m 9,0 km/h (2 Bft) 97,87 %
18.06.2018 13:20 21,8 C 22,8 C 20,6 C 73 % 1018,2 hPa 0,0 l/m 2 min 0 min 496 W/m 6,8 km/h (2 Bft) 95,74 %
18.06.2018 13:22 21,8 C 23,3 C 21,1 C 73 % 1018,2 hPa 0,0 l/m 2 min 0 min 528 W/m 9,0 km/h (2 Bft) 97,83 %
18.06.2018 13:24 21,9 C 23,9 C 21,1 C 72 % 1018,2 hPa 0,0 l/m 2 min 0 min 585 W/m 9,0 km/h (2 Bft) 97,87 %
18.06.2018 13:26 21,9 C 23,9 C 21,1 C 72 % 1018,3 hPa 0,0 l/m 2 min 0 min 559 W/m 11,3 km/h (2 Bft) 95,74 %
18.06.2018 13:28 22,0 C 23,3 C 21,1 C 72 % 1018,4 hPa 0,0 l/m 2 min 0 min 490 W/m 11,3 km/h (2 Bft) 97,87 %
18.06.2018 13:30 22,1 C 23,3 C 21,1 C 72 % 1018,4 hPa 0,0 l/m 0 min 0 min 421 W/m 13,5 km/h (3 Bft) 97,87 %
18.06.2018 13:32 22,1 C 22,8 C 21,1 C 71 % 1018,3 hPa 0,0 l/m 0 min 0 min 448 W/m 11,3 km/h (2 Bft) 97,92 %
18.06.2018 13:34 22,2 C 22,8 C 21,1 C 72 % 1018,3 hPa 0,0 l/m 0 min 0 min 451 W/m 11,3 km/h (2 Bft) 97,87 %
18.06.2018 13:36 22,2 C 22,8 C 21,1 C 72 % 1018,3 hPa 0,0 l/m 0 min 0 min 367 W/m 13,5 km/h (3 Bft) 95,65 %
18.06.2018 13:38 22,2 C 22,8 C 21,1 C 72 % 1018,3 hPa 0,0 l/m 0 min 0 min 351 W/m 9,0 km/h (2 Bft) 97,87 %
18.06.2018 13:40 22,2 C 22,2 C 20,6 C 71 % 1018,3 hPa 0,0 l/m 0 min 0 min 299 W/m 13,5 km/h (3 Bft) 97,87 %
18.06.2018 13:42 22,1 C 21,7 C 20,6 C 71 % 1018,3 hPa 0,0 l/m 0 min 0 min 216 W/m 6,8 km/h (2 Bft) 97,87 %
18.06.2018 13:44 22,1 C 21,7 C 20,6 C 72 % 1018,4 hPa 0,0 l/m 0 min 0 min 178 W/m 6,8 km/h (2 Bft) 97,87 %
18.06.2018 13:46 22,0 C 21,1 C 20,0 C 71 % 1018,4 hPa 0,0 l/m 0 min 0 min 152 W/m 11,3 km/h (2 Bft) 95,65 %
18.06.2018 13:48 21,9 C 21,1 C 20,0 C 72 % 1018,3 hPa 0,0 l/m 0 min 0 min 153 W/m 9,0 km/h (2 Bft) 95,74 %
18.06.2018 13:50 21,9 C 21,1 C 20,6 C 72 % 1018,5 hPa 0,0 l/m 0 min 0 min 238 W/m 13,5 km/h (3 Bft) 97,87 %
18.06.2018 13:52 21,8 C 21,1 C 20,0 C 73 % 1018,4 hPa 0,0 l/m 0 min 0 min 310 W/m 11,3 km/h (2 Bft) 95,74 %
18.06.2018 13:54 21,8 C 21,1 C 20,0 C 73 % 1018,4 hPa 0,0 l/m 0 min 0 min 300 W/m 9,0 km/h (2 Bft) 95,74 %
18.06.2018 13:56 21,7 C 21,1 C 20,0 C 74 % 1018,4 hPa 0,0 l/m 0 min 0 min 289 W/m 9,0 km/h (2 Bft) 95,74 %
18.06.2018 13:58 21,6 C 21,7 C 20,0 C 74 % 1018,4 hPa 0,0 l/m 0 min 0 min 270 W/m 15,8 km/h (3 Bft) 95,65 %
18.06.2018 14:00 21,6 C 21,7 C 20,0 C 74 % 1018,4 hPa 0,0 l/m 0 min 0 min 291 W/m 9,0 km/h (2 Bft) 97,87 %
18.06.2018 14:02 21,6 C 21,7 C 20,0 C 74 % 1018,4 hPa 0,0 l/m 0 min 0 min 282 W/m 9,0 km/h (2 Bft) 97,87 %
18.06.2018 14:04 21,5 C 21,7 C 20,0 C 74 % 1018,4 hPa 0,0 l/m 0 min 0 min 266 W/m 6,8 km/h (2 Bft) 100,00 %
18.06.2018 14:06 21,5 C 21,7 C 20,0 C 74 % 1018,4 hPa 0,0 l/m 0 min 0 min 246 W/m 9,0 km/h (2 Bft) 95,74 %
18.06.2018 14:08 21,4 C 21,1 C 20,0 C 74 % 1018,4 hPa 0,0 l/m 0 min 0 min 243 W/m 9,0 km/h (2 Bft) 95,74 %
18.06.2018 14:10 21,4 C 21,1 C 20,0 C 74 % 1018,5 hPa 0,0 l/m 0 min 0 min 229 W/m 9,0 km/h (2 Bft) 97,83 %
18.06.2018 14:12 21,4 C 21,1 C 20,0 C 74 % 1018,5 hPa 0,0 l/m 0 min 0 min 214 W/m 6,8 km/h (2 Bft) 95,74 %
18.06.2018 14:14 21,4 C 21,1 C 20,0 C 74 % 1018,4 hPa 0,0 l/m 0 min 0 min 227 W/m 13,5 km/h (3 Bft) 97,87 %
18.06.2018 14:16 21,4 C 21,7 C 20,0 C 74 % 1018,5 hPa 0,0 l/m 0 min 0 min 230 W/m 4,5 km/h (1 Bft) 93,62 %
18.06.2018 14:18 21,4 C 21,1 C 20,0 C 75 % 1018,4 hPa 0,0 l/m 0 min 0 min 207 W/m 6,8 km/h (2 Bft) 97,87 %
18.06.2018 14:20 21,4 C 21,1 C 20,0 C 75 % 1018,4 hPa 0,0 l/m 0 min 0 min 189 W/m 4,5 km/h (1 Bft) 97,87 %
18.06.2018 14:22 21,4 C 21,1 C 20,0 C 75 % 1018,4 hPa 0,0 l/m 0 min 0 min 165 W/m 6,8 km/h (2 Bft) 97,83 %
18.06.2018 14:24 21,4 C 21,1 C 20,0 C 75 % 1018,6 hPa 0,0 l/m 0 min 0 min 160 W/m 9,0 km/h (2 Bft) 97,87 %
18.06.2018 14:26 21,3 C 21,1 C 20,0 C 75 % 1018,6 hPa 0,0 l/m 0 min 0 min 149 W/m 11,3 km/h (2 Bft) 97,87 %
18.06.2018 14:28 21,3 C 20,6 C 20,0 C 75 % 1018,6 hPa 0,0 l/m 0 min 0 min 130 W/m 6,8 km/h (2 Bft) 97,87 %
18.06.2018 14:30 21,3 C 21,1 C 20,0 C 75 % 1018,6 hPa 0,0 l/m 0 min 0 min 158 W/m 6,8 km/h (2 Bft) 97,87 %
18.06.2018 14:32 21,3 C 21,1 C 20,0 C 75 % 1018,6 hPa 0,0 l/m 0 min 0 min 261 W/m 13,5 km/h (3 Bft) 97,87 %
18.06.2018 14:34 21,3 C 21,1 C 20,0 C 75 % 1018,8 hPa 0,0 l/m 0 min 0 min 375 W/m 15,8 km/h (3 Bft) 97,83 %
18.06.2018 14:36 21,2 C 21,7 C 20,0 C 76 % 1018,9 hPa 0,0 l/m 0 min 0 min 415 W/m 15,8 km/h (3 Bft) 97,87 %
18.06.2018 14:38 21,2 C 21,1 C 20,0 C 77 % 1018,7 hPa 0,0 l/m 0 min 0 min 338 W/m 11,3 km/h (2 Bft) 97,87 %
18.06.2018 14:40 21,2 C 20,6 C 19,4 C 78 % 1018,8 hPa 0,0 l/m 0 min 0 min 265 W/m 9,0 km/h (2 Bft) 95,74 %
18.06.2018 14:42 21,1 C 19,4 C 19,4 C 78 % 1018,8 hPa 0,0 l/m 0 min 2 min 200 W/m 9,0 km/h (2 Bft) 95,74 %
18.06.2018 14:44 21,1 C 18,9 C 18,9 C 79 % 1018,7 hPa 0,0 l/m 0 min 0 min 193 W/m 11,3 km/h (2 Bft) 95,74 %
18.06.2018 14:46 21,0 C 19,4 C 18,9 C 79 % 1018,8 hPa 0,0 l/m 0 min 0 min 216 W/m 6,8 km/h (2 Bft) 95,65 %
18.06.2018 14:48 20,9 C 20,0 C 18,9 C 80 % 1018,7 hPa 0,0 l/m 0 min 0 min 241 W/m 6,8 km/h (2 Bft) 93,62 %
18.06.2018 14:50 20,8 C 20,0 C 18,9 C 80 % 1018,7 hPa 0,0 l/m 0 min 0 min 223 W/m 9,0 km/h (2 Bft) 95,74 %
18.06.2018 14:52 20,7 C 20,0 C 18,9 C 80 % 1018,8 hPa 0,0 l/m 0 min 0 min 209 W/m 11,3 km/h (2 Bft) 95,74 %
18.06.2018 14:54 20,7 C 19,4 C 18,9 C 80 % 1018,8 hPa 0,0 l/m 0 min 0 min 180 W/m 6,8 km/h (2 Bft) 95,74 %
18.06.2018 14:56 20,6 C 19,4 C 18,9 C 81 % 1018,7 hPa 0,0 l/m 0 min 0 min 149 W/m 9,0 km/h (2 Bft) 95,65 %
18.06.2018 14:58 20,5 C 18,9 C 18,9 C 81 % 1018,7 hPa 0,0 l/m 0 min 0 min 127 W/m 9,0 km/h (2 Bft) 95,74 %
18.06.2018 15:00 20,4 C 19,4 C 18,9 C 81 % 1018,7 hPa 0,0 l/m 0 min 0 min 124 W/m 4,5 km/h (1 Bft) 95,74 %
18.06.2018 15:02 20,4 C 19,4 C 18,9 C 81 % 1018,7 hPa 0,0 l/m 0 min 0 min 142 W/m 9,0 km/h (2 Bft) 93,62 %
18.06.2018 15:04 20,3 C 19,4 C 18,9 C 81 % 1018,8 hPa 0,0 l/m 0 min 0 min 149 W/m 2,3 km/h (1 Bft) 95,74 %
18.06.2018 15:06 20,3 C 19,4 C 18,9 C 81 % 1018,7 hPa 0,0 l/m 0 min 0 min 139 W/m 2,3 km/h (1 Bft) 95,74 %
18.06.2018 15:08 20,2 C 19,4 C 18,9 C 82 % 1018,7 hPa 0,0 l/m 0 min 0 min 141 W/m 2,3 km/h (1 Bft) 97,83 %
18.06.2018 15:10 20,2 C 20,0 C 18,9 C 82 % 1018,8 hPa 0,0 l/m 0 min 0 min 180 W/m 4,5 km/h (1 Bft) 95,74 %
18.06.2018 15:12 20,2 C 20,0 C 18,9 C 82 % 1018,7 hPa 0,0 l/m 0 min 0 min 270 W/m 4,5 km/h (1 Bft) 97,87 %
18.06.2018 15:14 20,2 C 20,6 C 19,4 C 82 % 1018,7 hPa 0,0 l/m 0 min 0 min 352 W/m 4,5 km/h (1 Bft) 95,74 %
18.06.2018 15:16 20,2 C 21,1 C 19,4 C 82 % 1018,6 hPa 0,0 l/m 0 min 0 min 359 W/m 6,8 km/h (2 Bft) 97,87 %
18.06.2018 15:18 20,2 C 21,7 C 19,4 C 83 % 1018,6 hPa 0,0 l/m 0 min 0 min 351 W/m 4,5 km/h (1 Bft) 97,87 %
18.06.2018 15:20 20,3 C 21,7 C 19,4 C 83 % 1018,6 hPa 0,0 l/m 0 min 0 min 337 W/m 9,0 km/h (2 Bft) 97,83 %
18.06.2018 15:22 20,3 C 21,7 C 19,4 C 82 % 1018,6 hPa 0,0 l/m 0 min 0 min 322 W/m 6,8 km/h (2 Bft) 95,74 %
18.06.2018 15:24 20,3 C 21,7 C 19,4 C 82 % 1018,6 hPa 0,0 l/m 0 min 0 min 274 W/m 6,8 km/h (2 Bft) 97,87 %
18.06.2018 15:26 20,4 C 21,1 C 19,4 C 82 % 1018,6 hPa 0,0 l/m 0 min 0 min 215 W/m 4,5 km/h (1 Bft) 97,87 %
18.06.2018 15:28 20,4 C 21,1 C 19,4 C 82 % 1018,6 hPa 0,0 l/m 0 min 0 min 181 W/m 6,8 km/h (2 Bft) 97,87 %
18.06.2018 15:30 20,4 C 21,1 C 19,4 C 82 % 1018,6 hPa 0,0 l/m 0 min 0 min 167 W/m 4,5 km/h (1 Bft) 97,87 %
18.06.2018 15:32 20,4 C 20,6 C 19,4 C 82 % 1018,7 hPa 0,0 l/m 0 min 0 min 148 W/m 4,5 km/h (1 Bft) 97,83 %
18.06.2018 15:34 20,5 C 20,6 C 19,4 C 82 % 1018,6 hPa 0,0 l/m 0 min 0 min 122 W/m 4,5 km/h (1 Bft) 97,87 %
18.06.2018 15:36 20,5 C 20,6 C 19,4 C 82 % 1018,6 hPa 0,0 l/m 0 min 0 min 129 W/m 6,8 km/h (2 Bft) 100,00 %
18.06.2018 15:38 20,5 C 20,6 C 19,4 C 82 % 1018,6 hPa 0,0 l/m 0 min 0 min 187 W/m 4,5 km/h (1 Bft) 100,00 %
18.06.2018 15:40 20,5 C 21,1 C 19,4 C 82 % 1018,6 hPa 0,0 l/m 0 min 0 min 247 W/m 2,3 km/h (1 Bft) 100,00 %
18.06.2018 15:42 20,6 C 21,1 C 19,4 C 82 % 1018,6 hPa 0,0 l/m 0 min 0 min 278 W/m 4,5 km/h (1 Bft) 97,87 %
18.06.2018 15:44 20,6 C 21,1 C 19,4 C 82 % 1018,6 hPa 0,0 l/m 0 min 0 min 248 W/m 2,3 km/h (1 Bft) 100,00 %
18.06.2018 15:46 20,6 C 21,1 C 19,4 C 81 % 1018,7 hPa 0,0 l/m 0 min 0 min 229 W/m 6,8 km/h (2 Bft) 100,00 %
18.06.2018 15:48 20,6 C 21,1 C 20,0 C 81 % 1018,7 hPa 0,0 l/m 0 min 0 min 256 W/m 4,5 km/h (1 Bft) 97,87 %
18.06.2018 15:50 20,7 C 21,1 C 20,0 C 81 % 1018,7 hPa 0,0 l/m 0 min 0 min 269 W/m 4,5 km/h (1 Bft) 100,00 %
18.06.2018 15:52 20,7 C 21,7 C 20,0 C 81 % 1018,7 hPa 0,0 l/m 0 min 0 min 329 W/m 9,0 km/h (2 Bft) 98,11 %
18.06.2018 15:54 20,7 C 21,7 C 20,0 C 81 % 1018,7 hPa 0,0 l/m 0 min 0 min 373 W/m 6,8 km/h (2 Bft) 97,87 %
18.06.2018 15:56 20,8 C 22,2 C 20,6 C 81 % 1018,7 hPa 0,0 l/m 2 min 0 min 418 W/m 4,5 km/h (1 Bft) 97,87 %
18.06.2018 15:58 20,9 C 22,2 C 20,6 C 81 % 1018,7 hPa 0,0 l/m 0 min 0 min 370 W/m 9,0 km/h (2 Bft) 97,87 %
18.06.2018 16:00 20,9 C 22,2 C 20,0 C 80 % 1018,6 hPa 0,0 l/m 0 min 0 min 337 W/m 6,8 km/h (2 Bft) 97,83 %
18.06.2018 16:02 21,0 C 22,2 C 20,6 C 80 % 1018,5 hPa 0,0 l/m 0 min 0 min 366 W/m 6,8 km/h (2 Bft) 97,87 %
18.06.2018 16:04 21,0 C 22,2 C 20,6 C 79 % 1018,5 hPa 0,0 l/m 2 min 0 min 398 W/m 6,8 km/h (2 Bft) 97,87 %
18.06.2018 16:06 21,1 C 22,8 C 20,6 C 79 % 1018,5 hPa 0,0 l/m 2 min 0 min 425 W/m 9,0 km/h (2 Bft) 97,87 %
18.06.2018 16:08 21,2 C 23,3 C 20,6 C 79 % 1018,4 hPa 0,0 l/m 2 min 0 min 578 W/m 11,3 km/h (2 Bft) 95,74 %
18.06.2018 16:10 21,2 C 23,3 C 20,6 C 79 % 1018,4 hPa 0,0 l/m 2 min 0 min 638 W/m 9,0 km/h (2 Bft) 95,74 %
18.06.2018 16:12 21,3 C 23,9 C 21,1 C 79 % 1018,4 hPa 0,0 l/m 2 min 0 min 552 W/m 11,3 km/h (2 Bft) 97,83 %
18.06.2018 16:14 21,5 C 23,9 C 21,1 C 79 % 1018,4 hPa 0,0 l/m 2 min 0 min 544 W/m 9,0 km/h (2 Bft) 97,87 %
18.06.2018 16:16 21,6 C 23,9 C 21,1 C 78 % 1018,3 hPa 0,0 l/m 2 min 0 min 553 W/m 6,8 km/h (2 Bft) 97,87 %
18.06.2018 16:18 21,7 C 24,4 C 21,1 C 78 % 1018,3 hPa 0,0 l/m 2 min 0 min 659 W/m 9,0 km/h (2 Bft) 97,87 %
18.06.2018 16:20 21,8 C 23,9 C 21,1 C 77 % 1018,1 hPa 0,0 l/m 2 min 0 min 523 W/m 6,8 km/h (2 Bft) 97,87 %
18.06.2018 16:22 21,9 C 23,9 C 21,1 C 77 % 1018,3 hPa 0,0 l/m 2 min 0 min 386 W/m 11,3 km/h (2 Bft) 97,87 %
18.06.2018 16:24 22,0 C 23,3 C 21,1 C 76 % 1018,2 hPa 0,0 l/m 0 min 0 min 331 W/m 15,8 km/h (3 Bft) 97,83 %
18.06.2018 16:26 22,1 C 22,8 C 21,1 C 75 % 1018,3 hPa 0,0 l/m 0 min 0 min 312 W/m 11,3 km/h (2 Bft) 97,87 %
18.06.2018 16:28 22,1 C 22,2 C 21,1 C 75 % 1018,2 hPa 0,0 l/m 0 min 0 min 300 W/m 11,3 km/h (2 Bft) 95,74 %
18.06.2018 16:30 22,1 C 22,8 C 21,1 C 75 % 1018,3 hPa 0,0 l/m 0 min 0 min 300 W/m 9,0 km/h (2 Bft) 97,87 %
18.06.2018 16:32 22,1 C 22,8 C 21,1 C 75 % 1018,2 hPa 0,0 l/m 0 min 0 min 280 W/m 9,0 km/h (2 Bft) 97,87 %
18.06.2018 16:34 22,1 C 22,8 C 21,1 C 75 % 1018,2 hPa 0,0 l/m 0 min 0 min 247 W/m 4,5 km/h (1 Bft) 100,00 %
18.06.2018 16:36 22,2 C 22,8 C 20,6 C 75 % 1018,2 hPa 0,0 l/m 0 min 0 min 238 W/m 9,0 km/h (2 Bft) 100,00 %
18.06.2018 16:38 22,2 C 22,2 C 20,6 C 75 % 1018,2 hPa 0,0 l/m 0 min 0 min 253 W/m 11,3 km/h (2 Bft) 100,00 %
18.06.2018 16:40 22,1 C 22,2 C 20,6 C 75 % 1018,3 hPa 0,0 l/m 0 min 0 min 239 W/m 6,8 km/h (2 Bft) 97,87 %
18.06.2018 16:42 22,1 C 22,2 C 20,6 C 75 % 1018,4 hPa 0,0 l/m 0 min 0 min 195 W/m 6,8 km/h (2 Bft) 100,00 %
18.06.2018 16:44 22,1 C 21,7 C 20,6 C 75 % 1018,4 hPa 0,0 l/m 0 min 0 min 188 W/m 9,0 km/h (2 Bft) 100,00 %
18.06.2018 16:46 22,1 C 21,7 C 20,6 C 74 % 1018,3 hPa 0,0 l/m 0 min 0 min 191 W/m 6,8 km/h (2 Bft) 97,83 %
18.06.2018 16:48 22,0 C 21,7 C 20,6 C 74 % 1018,3 hPa 0,0 l/m 0 min 0 min 176 W/m 9,0 km/h (2 Bft) 97,87 %
18.06.2018 16:50 22,0 C 21,7 C 20,6 C 74 % 1018,3 hPa 0,0 l/m 0 min 0 min 176 W/m 4,5 km/h (1 Bft) 97,87 %
18.06.2018 16:52 22,0 C 21,7 C 20,6 C 75 % 1018,3 hPa 0,0 l/m 0 min 0 min 194 W/m 13,5 km/h (3 Bft) 100,00 %
18.06.2018 16:54 21,9 C 21,7 C 20,6 C 74 % 1018,3 hPa 0,0 l/m 0 min 0 min 208 W/m 6,8 km/h (2 Bft) 97,87 %
18.06.2018 16:56 21,9 C 21,7 C 20,6 C 74 % 1018,2 hPa 0,0 l/m 0 min 0 min 210 W/m 6,8 km/h (2 Bft) 100,00 %
18.06.2018 16:58 21,9 C 21,7 C 20,6 C 74 % 1018,3 hPa 0,0 l/m 0 min 0 min 204 W/m 6,8 km/h (2 Bft) 100,00 %
18.06.2018 17:00 21,9 C 21,7 C 20,6 C 74 % 1018,2 hPa 0,0 l/m 0 min 0 min 204 W/m 9,0 km/h (2 Bft) 100,00 %
18.06.2018 17:02 21,9 C 21,7 C 20,6 C 75 % 1018,2 hPa 0,0 l/m 0 min 0 min 208 W/m 6,8 km/h (2 Bft) 100,00 %
18.06.2018 17:04 21,8 C 21,7 C 20,6 C 75 % 1018,2 hPa 0,0 l/m 0 min 0 min 201 W/m 11,3 km/h (2 Bft) 97,87 %
18.06.2018 17:06 21,8 C 21,7 C 20,6 C 75 % 1018,0 hPa 0,0 l/m 0 min 0 min 228 W/m 4,5 km/h (1 Bft) 97,87 %
18.06.2018 17:08 21,8 C 22,2 C 20,6 C 75 % 1018,0 hPa 0,0 l/m 0 min 0 min 247 W/m 6,8 km/h (2 Bft) 100,00 %
18.06.2018 17:10 21,8 C 22,2 C 20,6 C 75 % 1018,0 hPa 0,0 l/m 0 min 0 min 234 W/m 6,8 km/h (2 Bft) 95,65 %
18.06.2018 17:12 21,8 C 22,2 C 20,6 C 75 % 1018,0 hPa 0,0 l/m 0 min 0 min 267 W/m 4,5 km/h (1 Bft) 97,87 %
18.06.2018 17:14 21,8 C 22,8 C 20,6 C 75 % 1017,9 hPa 0,0 l/m 0 min 0 min 323 W/m 6,8 km/h (2 Bft) 97,87 %
18.06.2018 17:16 21,9 C 22,8 C 21,1 C 75 % 1018,0 hPa 0,0 l/m 2 min 0 min 357 W/m 6,8 km/h (2 Bft) 97,87 %
18.06.2018 17:18 21,9 C 22,8 C 21,1 C 75 % 1018,1 hPa 0,0 l/m 2 min 0 min 337 W/m 9,0 km/h (2 Bft) 100,00 %
18.06.2018 17:20 22,0 C 22,8 C 21,1 C 75 % 1017,9 hPa 0,0 l/m 2 min 0 min 348 W/m 9,0 km/h (2 Bft) 95,74 %
18.06.2018 17:22 22,0 C 22,8 C 21,1 C 75 % 1018,0 hPa 0,0 l/m 0 min 0 min 258 W/m 4,5 km/h (1 Bft) 97,83 %
18.06.2018 17:24 22,1 C 22,8 C 21,1 C 75 % 1018,0 hPa 0,0 l/m 0 min 0 min 197 W/m 6,8 km/h (2 Bft) 95,74 %
18.06.2018 17:26 22,1 C 22,8 C 21,1 C 75 % 1018,0 hPa 0,0 l/m 0 min 0 min 180 W/m 6,8 km/h (2 Bft) 97,87 %
18.06.2018 17:28 22,1 C 22,8 C 21,1 C 75 % 1018,0 hPa 0,0 l/m 0 min 0 min 208 W/m 4,5 km/h (1 Bft) 100,00 %
18.06.2018 17:30 22,2 C 22,8 C 21,7 C 75 % 1018,0 hPa 0,0 l/m 0 min 0 min 186 W/m 11,3 km/h (2 Bft) 97,87 %
18.06.2018 17:32 22,2 C 22,2 C 21,1 C 74 % 1018,0 hPa 0,0 l/m 0 min 0 min 211 W/m 6,8 km/h (2 Bft) 100,00 %
18.06.2018 17:34 22,3 C 22,8 C 21,1 C 75 % 1017,9 hPa 0,0 l/m 0 min 0 min 220 W/m 6,8 km/h (2 Bft) 95,74 %
18.06.2018 17:36 22,3 C 22,2 C 21,1 C 74 % 1017,9 hPa 0,0 l/m 0 min 0 min 186 W/m 6,8 km/h (2 Bft) 97,87 %
18.06.2018 17:38 22,3 C 22,2 C 21,1 C 74 % 1017,9 hPa 0,0 l/m 0 min 0 min 155 W/m 6,8 km/h (2 Bft) 97,87 %
18.06.2018 17:40 22,3 C 22,2 C 21,1 C 74 % 1018,0 hPa 0,0 l/m 0 min 0 min 151 W/m 11,3 km/h (2 Bft) 97,83 %
18.06.2018 17:42 22,3 C 22,2 C 21,1 C 74 % 1018,0 hPa 0,0 l/m 0 min 0 min 152 W/m 11,3 km/h (2 Bft) 95,74 %
18.06.2018 17:44 22,3 C 21,7 C 21,7 C 73 % 1017,9 hPa 0,0 l/m 0 min 0 min 141 W/m 11,3 km/h (2 Bft) 97,87 %
18.06.2018 17:46 22,3 C 21,7 C 21,1 C 73 % 1017,9 hPa 0,0 l/m 0 min 0 min 132 W/m 6,8 km/h (2 Bft) 97,92 %
18.06.2018 17:48 22,3 C 22,2 C 21,1 C 74 % 1017,8 hPa 0,0 l/m 0 min 0 min 124 W/m 6,8 km/h (2 Bft) 97,87 %
18.06.2018 17:50 22,3 C 21,7 C 21,1 C 73 % 1017,9 hPa 0,0 l/m 0 min 0 min 124 W/m 13,5 km/h (3 Bft) 95,74 %
18.06.2018 17:52 22,3 C 21,7 C 21,1 C 73 % 1017,8 hPa 0,0 l/m 0 min 0 min 140 W/m 9,0 km/h (2 Bft) 95,65 %
18.06.2018 17:54 22,2 C 21,7 C 21,1 C 74 % 1017,7 hPa 0,0 l/m 0 min 0 min 176 W/m 6,8 km/h (2 Bft) 95,74 %
18.06.2018 17:56 22,2 C 22,2 C 21,1 C 74 % 1017,7 hPa 0,0 l/m 0 min 0 min 217 W/m 11,3 km/h (2 Bft) 95,74 %
18.06.2018 17:58 22,2 C 22,2 C 21,1 C 74 % 1017,8 hPa 0,0 l/m 0 min 0 min 239 W/m 9,0 km/h (2 Bft) 95,74 %
18.06.2018 18:00 22,2 C 22,8 C 21,1 C 74 % 1017,8 hPa 0,0 l/m 2 min 0 min 322 W/m 6,8 km/h (2 Bft) 97,87 %
18.06.2018 18:02 22,3 C 22,8 C 21,1 C 74 % 1017,8 hPa 0,0 l/m 2 min 0 min 403 W/m 11,3 km/h (2 Bft) 95,74 %
18.06.2018 18:04 22,3 C 22,8 C 21,7 C 74 % 1017,7 hPa 0,0 l/m 2 min 0 min 422 W/m 11,3 km/h (2 Bft) 91,30 %
18.06.2018 18:08 22,4 C 23,3 C 21,7 C 74 % 1017,7 hPa 0,0 l/m 4 min 0 min 371 W/m 11,3 km/h (2 Bft) 95,74 %
18.06.2018 18:10 22,4 C 22,8 C 21,7 C 74 % 1017,7 hPa 0,0 l/m 2 min 0 min 402 W/m 13,5 km/h (3 Bft) 95,74 %
18.06.2018 18:12 22,5 C 22,8 C 21,1 C 73 % 1017,7 hPa 0,0 l/m 0 min 0 min 229 W/m 13,5 km/h (3 Bft) 95,74 %
18.06.2018 18:14 22,5 C 22,2 C 21,1 C 73 % 1017,8 hPa 0,0 l/m 0 min 0 min 211 W/m 11,3 km/h (2 Bft) 95,74 %
18.06.2018 18:16 22,4 C 22,2 C 21,1 C 73 % 1017,8 hPa 0,0 l/m 0 min 0 min 155 W/m 9,0 km/h (2 Bft) 95,65 %
18.06.2018 18:18 22,4 C 22,2 C 21,1 C 73 % 1017,8 hPa 0,0 l/m 0 min 0 min 154 W/m 13,5 km/h (3 Bft) 95,74 %
18.06.2018 18:20 22,4 C 22,2 C 21,1 C 73 % 1017,7 hPa 0,0 l/m 0 min 0 min 176 W/m 11,3 km/h (2 Bft) 95,74 %
18.06.2018 18:22 22,4 C 22,2 C 21,1 C 73 % 1017,7 hPa 0,0 l/m 0 min 0 min 235 W/m 6,8 km/h (2 Bft) 95,74 %
18.06.2018 18:24 22,4 C 22,8 C 21,1 C 73 % 1017,8 hPa 0,0 l/m 2 min 0 min 295 W/m 11,3 km/h (2 Bft) 93,62 %
18.06.2018 18:26 22,4 C 22,8 C 21,1 C 74 % 1017,9 hPa 0,0 l/m 2 min 0 min 329 W/m 4,5 km/h (1 Bft) 95,74 %
18.06.2018 18:28 22,4 C 22,8 C 21,1 C 74 % 1017,8 hPa 0,0 l/m 2 min 0 min 350 W/m 9,0 km/h (2 Bft) 95,65 %
18.06.2018 18:30 22,4 C 23,3 C 21,1 C 74 % 1017,8 hPa 0,0 l/m 2 min 0 min 420 W/m 6,8 km/h (2 Bft) 89,36 %
18.06.2018 18:32 22,5 C 23,3 C 21,7 C 74 % 1017,8 hPa 0,0 l/m 2 min 0 min 619 W/m 9,0 km/h (2 Bft) 97,87 %
18.06.2018 18:34 22,6 C 22,8 C 21,1 C 74 % 1017,8 hPa 0,0 l/m 0 min 0 min 225 W/m 9,0 km/h (2 Bft) 95,74 %
18.06.2018 18:36 22,6 C 22,2 C 21,1 C 74 % 1017,8 hPa 0,0 l/m 0 min 0 min 162 W/m 15,8 km/h (3 Bft) 94,34 %
18.06.2018 18:38 22,5 C 22,2 C 21,1 C 74 % 1017,8 hPa 0,0 l/m 0 min 0 min 151 W/m 9,0 km/h (2 Bft) 95,74 %
18.06.2018 18:40 22,5 C 22,2 C 21,1 C 73 % 1017,7 hPa 0,0 l/m 0 min 0 min 193 W/m 4,5 km/h (1 Bft) 95,74 %
18.06.2018 18:42 22,5 C 22,2 C 21,1 C 74 % 1017,7 hPa 0,0 l/m 0 min 0 min 205 W/m 6,8 km/h (2 Bft) 95,74 %
18.06.2018 18:44 22,5 C 22,2 C 21,1 C 73 % 1017,7 hPa 0,0 l/m 0 min 0 min 161 W/m 15,8 km/h (3 Bft) 97,83 %
18.06.2018 18:46 22,5 C 22,2 C 21,1 C 73 % 1017,9 hPa 0,0 l/m 0 min 0 min 177 W/m 9,0 km/h (2 Bft) 93,62 %
18.06.2018 18:48 22,5 C 22,2 C 21,1 C 73 % 1017,8 hPa 0,0 l/m 0 min 0 min 205 W/m 4,5 km/h (1 Bft) 97,87 %
18.06.2018 18:50 22,5 C 22,2 C 21,1 C 72 % 1017,8 hPa 0,0 l/m 0 min 0 min 209 W/m 9,0 km/h (2 Bft) 97,87 %
18.06.2018 18:52 22,5 C 22,8 C 21,1 C 72 % 1017,8 hPa 0,0 l/m 2 min 0 min 270 W/m 6,8 km/h (2 Bft) 97,87 %
18.06.2018 18:54 22,5 C 22,8 C 21,7 C 72 % 1017,7 hPa 0,0 l/m 2 min 0 min 471 W/m 9,0 km/h (2 Bft) 97,87 %
18.06.2018 18:56 22,5 C 22,8 C 21,1 C 72 % 1017,8 hPa 0,0 l/m 0 min 0 min 194 W/m 11,3 km/h (2 Bft) 95,65 %
18.06.2018 18:58 22,6 C 22,8 C 21,1 C 72 % 1017,7 hPa 0,0 l/m 0 min 0 min 158 W/m 9,0 km/h (2 Bft) 97,87 %
18.06.2018 19:00 22,6 C 22,2 C 21,1 C 72 % 1017,7 hPa 0,0 l/m 0 min 0 min 141 W/m 6,8 km/h (2 Bft) 100,00 %
18.06.2018 19:02 22,6 C 22,2 C 21,1 C 73 % 1017,6 hPa 0,0 l/m 0 min 0 min 137 W/m 6,8 km/h (2 Bft) 95,74 %
18.06.2018 19:04 22,6 C 22,2 C 21,1 C 72 % 1017,6 hPa 0,0 l/m 0 min 0 min 156 W/m 6,8 km/h (2 Bft) 95,74 %
18.06.2018 19:06 22,6 C 22,8 C 21,1 C 73 % 1017,6 hPa 0,0 l/m 2 min 0 min 404 W/m 6,8 km/h (2 Bft) 97,83 %
18.06.2018 19:08 22,6 C 22,8 C 21,7 C 73 % 1017,5 hPa 0,0 l/m 2 min 0 min 472 W/m 11,3 km/h (2 Bft) 100,00 %
18.06.2018 19:10 22,6 C 23,3 C 21,7 C 73 % 1017,5 hPa 0,0 l/m 2 min 0 min 451 W/m 6,8 km/h (2 Bft) 100,00 %
18.06.2018 19:12 22,6 C 22,8 C 21,7 C 73 % 1017,5 hPa 0,0 l/m 2 min 0 min 207 W/m 4,5 km/h (1 Bft) 97,87 %
18.06.2018 19:14 22,6 C 22,8 C 21,1 C 73 % 1017,5 hPa 0,0 l/m 0 min 0 min 135 W/m 4,5 km/h (1 Bft) 100,00 %
18.06.2018 19:16 22,7 C 22,8 C 21,1 C 73 % 1017,5 hPa 0,0 l/m 2 min 0 min 187 W/m 6,8 km/h (2 Bft) 100,00 %
18.06.2018 19:18 22,6 C 22,8 C 21,1 C 72 % 1017,4 hPa 0,0 l/m 2 min 0 min 311 W/m 4,5 km/h (1 Bft) 100,00 %
18.06.2018 19:20 22,7 C 22,2 C 21,1 C 72 % 1017,5 hPa 0,0 l/m 0 min 0 min 136 W/m 4,5 km/h (1 Bft) 97,87 %
18.06.2018 19:22 22,6 C 22,2 C 21,1 C 72 % 1017,5 hPa 0,0 l/m 0 min 0 min 158 W/m 9,0 km/h (2 Bft) 100,00 %
18.06.2018 19:24 22,6 C 22,2 C 21,1 C 71 % 1017,6 hPa 0,0 l/m 2 min 0 min 180 W/m 9,0 km/h (2 Bft) 97,87 %
18.06.2018 19:26 22,6 C 22,2 C 21,1 C 71 % 1017,6 hPa 0,0 l/m 2 min 0 min 196 W/m 6,8 km/h (2 Bft) 100,00 %
18.06.2018 19:28 22,6 C 22,2 C 21,1 C 71 % 1017,6 hPa 0,0 l/m 2 min 0 min 173 W/m 9,0 km/h (2 Bft) 100,00 %
18.06.2018 19:30 22,6 C 22,2 C 21,1 C 71 % 1017,6 hPa 0,0 l/m 2 min 0 min 268 W/m 9,0 km/h (2 Bft) 100,00 %
18.06.2018 19:32 22,6 C 22,8 C 21,1 C 71 % 1017,6 hPa 0,0 l/m 2 min 0 min 379 W/m 4,5 km/h (1 Bft) 97,87 %
18.06.2018 19:34 22,6 C 22,8 C 21,1 C 71 % 1017,7 hPa 0,0 l/m 2 min 0 min 316 W/m 6,8 km/h (2 Bft) 100,00 %
18.06.2018 19:36 22,6 C 22,8 C 21,1 C 71 % 1017,6 hPa 0,0 l/m 2 min 0 min 194 W/m 11,3 km/h (2 Bft) 100,00 %
18.06.2018 19:38 22,6 C 22,8 C 21,1 C 71 % 1017,8 hPa 0,0 l/m 2 min 0 min 371 W/m 6,8 km/h (2 Bft) 100,00 %
18.06.2018 19:40 22,6 C 22,8 C 21,1 C 71 % 1017,7 hPa 0,0 l/m 2 min 0 min 366 W/m 4,5 km/h (1 Bft) 100,00 %
18.06.2018 19:42 22,6 C 22,8 C 21,7 C 71 % 1017,7 hPa 0,0 l/m 2 min 0 min 358 W/m 6,8 km/h (2 Bft) 100,00 %
18.06.2018 19:44 22,7 C 22,8 C 21,1 C 71 % 1017,7 hPa 0,0 l/m 2 min 0 min 353 W/m 6,8 km/h (2 Bft) 100,00 %
18.06.2018 19:46 22,7 C 22,8 C 21,7 C 70 % 1017,7 hPa 0,0 l/m 2 min 0 min 222 W/m 13,5 km/h (3 Bft) 100,00 %
18.06.2018 19:48 22,7 C 22,8 C 21,1 C 70 % 1017,8 hPa 0,0 l/m 2 min 0 min 146 W/m 6,8 km/h (2 Bft) 100,00 %
18.06.2018 19:50 22,7 C 22,2 C 21,1 C 70 % 1017,9 hPa 0,0 l/m 2 min 0 min 155 W/m 6,8 km/h (2 Bft) 100,00 %
18.06.2018 19:52 22,7 C 22,2 C 21,1 C 70 % 1017,9 hPa 0,0 l/m 2 min 0 min 159 W/m 6,8 km/h (2 Bft) 100,00 %
18.06.2018 19:54 22,7 C 22,2 C 21,1 C 70 % 1017,8 hPa 0,0 l/m 2 min 0 min 159 W/m 13,5 km/h (3 Bft) 100,00 %
18.06.2018 19:56 22,7 C 22,2 C 21,1 C 70 % 1017,8 hPa 0,0 l/m 2 min 0 min 154 W/m 15,8 km/h (3 Bft) 100,00 %
18.06.2018 19:58 22,6 C 22,2 C 21,1 C 70 % 1017,9 hPa 0,0 l/m 2 min 0 min 160 W/m 9,0 km/h (2 Bft) 100,00 %
18.06.2018 20:00 22,6 C 22,2 C 21,1 C 69 % 1017,9 hPa 0,0 l/m 2 min 0 min 165 W/m 6,8 km/h (2 Bft) 100,00 %
18.06.2018 20:02 22,6 C 22,2 C 21,1 C 70 % 1017,8 hPa 0,0 l/m 2 min 0 min 135 W/m 11,3 km/h (2 Bft) 100,00 %
18.06.2018 20:04 22,6 C 21,7 C 21,1 C 70 % 1017,8 hPa 0,0 l/m 0 min 0 min 102 W/m 11,3 km/h (2 Bft) 100,00 %
18.06.2018 20:06 22,5 C 21,7 C 20,6 C 70 % 1017,8 hPa 0,0 l/m 0 min 0 min 71 W/m 11,3 km/h (2 Bft) 100,00 %
18.06.2018 20:08 22,5 C 21,1 C 20,6 C 70 % 1017,9 hPa 0,0 l/m 0 min 0 min 60 W/m 9,0 km/h (2 Bft) 100,00 %
18.06.2018 20:10 22,4 C 21,1 C 20,6 C 70 % 1017,9 hPa 0,0 l/m 0 min 0 min 60 W/m 4,5 km/h (1 Bft) 100,00 %
18.06.2018 20:12 22,4 C 21,1 C 20,6 C 70 % 1017,9 hPa 0,0 l/m 0 min 0 min 44 W/m 4,5 km/h (1 Bft) 100,00 %
18.06.2018 20:14 22,3 C 21,1 C 20,6 C 71 % 1017,9 hPa 0,0 l/m 0 min 0 min 37 W/m 6,8 km/h (2 Bft) 100,00 %
18.06.2018 20:16 22,3 C 21,1 C 20,6 C 71 % 1018,0 hPa 0,0 l/m 0 min 0 min 35 W/m 6,8 km/h (2 Bft) 100,00 %
18.06.2018 20:18 22,2 C 21,1 C 20,6 C 71 % 1018,0 hPa 0,0 l/m 0 min 0 min 54 W/m 9,0 km/h (2 Bft) 100,00 %
18.06.2018 20:20 22,1 C 21,1 C 20,6 C 71 % 1018,0 hPa 0,0 l/m 0 min 0 min 68 W/m 6,8 km/h (2 Bft) 100,00 %
18.06.2018 20:22 22,1 C 21,1 C 20,6 C 71 % 1017,9 hPa 0,0 l/m 0 min 0 min 57 W/m 9,0 km/h (2 Bft) 100,00 %
18.06.2018 20:24 22,0 C 21,1 C 20,6 C 71 % 1018,0 hPa 0,0 l/m 0 min 0 min 57 W/m 6,8 km/h (2 Bft) 100,00 %
18.06.2018 20:26 21,9 C 21,1 C 20,6 C 71 % 1018,0 hPa 0,0 l/m 0 min 0 min 59 W/m 6,8 km/h (2 Bft) 97,87 %
18.06.2018 20:28 21,9 C 21,1 C 20,6 C 72 % 1018,1 hPa 0,0 l/m 0 min 0 min 56 W/m 4,5 km/h (1 Bft) 95,65 %
18.06.2018 20:30 21,8 C 21,1 C 20,0 C 72 % 1018,0 hPa 0,0 l/m 0 min 0 min 54 W/m 4,5 km/h (1 Bft) 100,00 %
18.06.2018 20:32 21,8 C 20,6 C 20,0 C 72 % 1018,0 hPa 0,0 l/m 0 min 0 min 56 W/m 6,8 km/h (2 Bft) 97,87 %
18.06.2018 20:34 21,8 C 20,6 C 20,0 C 72 % 1018,0 hPa 0,0 l/m 0 min 0 min 53 W/m 6,8 km/h (2 Bft) 97,87 %
18.06.2018 20:36 21,7 C 20,6 C 20,0 C 72 % 1018,0 hPa 0,0 l/m 0 min 0 min 43 W/m 4,5 km/h (1 Bft) 93,62 %
18.06.2018 20:38 21,7 C 20,6 C 20,0 C 72 % 1018,0 hPa 0,0 l/m 0 min 0 min 33 W/m 4,5 km/h (1 Bft) 97,87 %
18.06.2018 20:40 21,7 C 20,6 C 20,0 C 73 % 1018,0 hPa 0,0 l/m 0 min 0 min 29 W/m 2,3 km/h (1 Bft) 100,00 %
18.06.2018 20:42 21,6 C 20,6 C 20,0 C 73 % 1018,2 hPa 0,0 l/m 0 min 0 min 35 W/m 6,8 km/h (2 Bft) 97,87 %
18.06.2018 20:44 21,6 C 20,6 C 20,0 C 73 % 1018,1 hPa 0,0 l/m 0 min 0 min 46 W/m 9,0 km/h (2 Bft) 95,74 %
18.06.2018 20:46 21,5 C 20,6 C 20,0 C 73 % 1018,1 hPa 0,0 l/m 0 min 0 min 46 W/m 4,5 km/h (1 Bft) 95,74 %
18.06.2018 20:48 21,4 C 20,6 C 20,0 C 73 % 1018,1 hPa 0,0 l/m 0 min 0 min 44 W/m 4,5 km/h (1 Bft) 100,00 %
18.06.2018 20:50 21,4 C 20,6 C 20,0 C 73 % 1018,1 hPa 0,0 l/m 0 min 0 min 44 W/m 2,3 km/h (1 Bft) 97,87 %
18.06.2018 20:52 21,4 C 20,6 C 20,0 C 73 % 1018,2 hPa 0,0 l/m 0 min 0 min 40 W/m 4,5 km/h (1 Bft) 97,83 %
18.06.2018 20:54 21,4 C 20,6 C 20,0 C 73 % 1018,2 hPa 0,0 l/m 0 min 0 min 39 W/m 9,0 km/h (2 Bft) 97,87 %
18.06.2018 20:56 21,3 C 20,6 C 20,0 C 72 % 1018,1 hPa 0,0 l/m 0 min 0 min 39 W/m 9,0 km/h (2 Bft) 95,74 %
18.06.2018 20:58 21,3 C 20,6 C 20,0 C 72 % 1018,1 hPa 0,0 l/m 0 min 0 min 32 W/m 2,3 km/h (1 Bft) 95,74 %
18.06.2018 21:00 21,3 C 20,6 C 20,0 C 72 % 1018,1 hPa 0,0 l/m 0 min 0 min 23 W/m 4,5 km/h (1 Bft) 93,62 %
18.06.2018 21:02 21,2 C 20,6 C 20,0 C 73 % 1018,2 hPa 0,0 l/m 0 min 0 min 19 W/m 6,8 km/h (2 Bft) 93,62 %
18.06.2018 21:04 21,2 C 20,0 C 19,4 C 73 % 1018,0 hPa 0,0 l/m 0 min 0 min 23 W/m 4,5 km/h (1 Bft) 93,48 %
18.06.2018 21:06 21,2 C 20,0 C 19,4 C 73 % 1018,1 hPa 0,0 l/m 0 min 0 min 24 W/m 6,8 km/h (2 Bft) 94,44 %
18.06.2018 21:08 21,1 C 20,0 C 19,4 C 73 % 1018,2 hPa 0,0 l/m 0 min 0 min 25 W/m 6,8 km/h (2 Bft) 91,38 %
18.06.2018 21:10 21,1 C 20,0 C 19,4 C 73 % 1018,2 hPa 0,0 l/m 0 min 0 min 21 W/m 9,0 km/h (2 Bft) 93,62 %
18.06.2018 21:12 21,0 C 20,0 C 19,4 C 74 % 1018,0 hPa 0,0 l/m 0 min 0 min 21 W/m 6,8 km/h (2 Bft) 93,62 %
18.06.2018 21:14 21,0 C 20,0 C 18,9 C 74 % 1018,0 hPa 0,0 l/m 0 min 0 min 23 W/m 4,5 km/h (1 Bft) 91,30 %
18.06.2018 21:16 21,0 C 19,4 C 18,9 C 74 % 1018,0 hPa 0,0 l/m 0 min 0 min 23 W/m 6,8 km/h (2 Bft) 93,62 %
18.06.2018 21:18 20,9 C 19,4 C 18,9 C 74 % 1018,2 hPa 0,0 l/m 0 min 0 min 22 W/m 2,3 km/h (1 Bft) 93,62 %
18.06.2018 21:20 20,9 C 19,4 C 18,9 C 74 % 1018,1 hPa 0,0 l/m 0 min 0 min 23 W/m 4,5 km/h (1 Bft) 91,49 %
18.06.2018 21:22 20,8 C 19,4 C 18,9 C 74 % 1018,0 hPa 0,0 l/m 0 min 0 min 20 W/m 2,3 km/h (1 Bft) 93,62 %
18.06.2018 21:24 20,8 C 19,4 C 18,9 C 74 % 1018,1 hPa 0,0 l/m 0 min 0 min 17 W/m 9,0 km/h (2 Bft) 93,62 %
18.06.2018 21:26 20,7 C 19,4 C 18,9 C 74 % 1018,1 hPa 0,0 l/m 0 min 0 min 15 W/m 4,5 km/h (1 Bft) 93,48 %
18.06.2018 21:28 20,7 C 19,4 C 18,9 C 74 % 1018,2 hPa 0,0 l/m 0 min 0 min 13 W/m 2,3 km/h (1 Bft) 97,87 %
18.06.2018 21:30 20,7 C 19,4 C 18,9 C 74 % 1018,2 hPa 0,0 l/m 0 min 0 min 12 W/m 4,5 km/h (1 Bft) 93,62 %
18.06.2018 21:32 20,6 C 19,4 C 18,9 C 74 % 1018,2 hPa 0,0 l/m 0 min 0 min 11 W/m 6,8 km/h (2 Bft) 91,49 %
18.06.2018 21:34 20,5 C 18,9 C 18,9 C 74 % 1018,3 hPa 0,0 l/m 0 min 0 min 11 W/m 4,5 km/h (1 Bft) 93,62 %
18.06.2018 21:36 20,4 C 18,9 C 18,9 C 74 % 1018,4 hPa 0,0 l/m 0 min 0 min 11 W/m 6,8 km/h (2 Bft) 91,67 %
18.06.2018 21:38 20,4 C 18,9 C 18,9 C 74 % 1018,4 hPa 0,0 l/m 0 min 0 min 11 W/m 2,3 km/h (1 Bft) 92,98 %
18.06.2018 21:40 20,3 C 18,9 C 18,9 C 74 % 1018,4 hPa 0,0 l/m 0 min 0 min 9 W/m 4,5 km/h (1 Bft) 93,62 %
18.06.2018 21:42 20,3 C 19,4 C 18,9 C 74 % 1018,4 hPa 0,0 l/m 0 min 0 min 7 W/m 4,5 km/h (1 Bft) 97,87 %
18.06.2018 21:44 20,3 C 19,4 C 18,9 C 74 % 1018,4 hPa 0,0 l/m 0 min 0 min 5 W/m 2,3 km/h (1 Bft) 93,62 %
18.06.2018 21:46 20,2 C 19,4 C 18,9 C 74 % 1018,4 hPa 0,0 l/m 0 min 0 min 5 W/m 4,5 km/h (1 Bft) 97,87 %
18.06.2018 21:48 20,2 C 19,4 C 18,9 C 74 % 1018,4 hPa 0,0 l/m 0 min 0 min 5 W/m 13,5 km/h (3 Bft) 97,87 %
18.06.2018 21:50 20,1 C 18,9 C 18,9 C 74 % 1018,4 hPa 0,0 l/m 0 min 0 min 5 W/m 13,5 km/h (3 Bft) 97,83 %
18.06.2018 21:52 20,1 C 18,9 C 18,9 C 74 % 1018,5 hPa 0,0 l/m 0 min 0 min 3 W/m 11,3 km/h (2 Bft) 95,74 %
18.06.2018 21:54 20,1 C 18,9 C 18,9 C 74 % 1018,4 hPa 0,0 l/m 0 min 0 min 0 W/m 6,8 km/h (2 Bft) 95,74 %
18.06.2018 21:56 20,1 C 18,9 C 18,9 C 74 % 1018,4 hPa 0,0 l/m 0 min 0 min 0 W/m 9,0 km/h (2 Bft) 95,74 %
18.06.2018 21:58 20,0 C 18,9 C 18,9 C 74 % 1018,5 hPa 0,0 l/m 0 min 0 min 0 W/m 4,5 km/h (1 Bft) 100,00 %
18.06.2018 22:00 20,0 C 18,9 C 18,9 C 74 % 1018,5 hPa 0,0 l/m 0 min 0 min 0 W/m 6,8 km/h (2 Bft) 95,74 %
18.06.2018 22:02 19,9 C 18,9 C 18,9 C 74 % 1018,6 hPa 0,0 l/m 0 min 0 min 0 W/m 6,8 km/h (2 Bft) 100,00 %
18.06.2018 22:04 19,9 C 18,9 C 18,9 C 74 % 1018,6 hPa 0,0 l/m 0 min 0 min 0 W/m 6,8 km/h (2 Bft) 100,00 %
18.06.2018 22:06 19,9 C 18,9 C 18,3 C 74 % 1018,6 hPa 0,0 l/m 0 min 0 min 0 W/m 4,5 km/h (1 Bft) 100,00 %
18.06.2018 22:08 19,9 C 18,9 C 18,3 C 74 % 1018,5 hPa 0,0 l/m 0 min 0 min 0 W/m 6,8 km/h (2 Bft) 100,00 %
18.06.2018 22:10 19,8 C 18,9 C 18,3 C 75 % 1018,6 hPa 0,0 l/m 0 min 0 min 0 W/m 6,8 km/h (2 Bft) 97,87 %
18.06.2018 22:12 19,8 C 18,9 C 18,3 C 75 % 1018,7 hPa 0,0 l/m 0 min 0 min 0 W/m 4,5 km/h (1 Bft) 100,00 %
18.06.2018 22:14 19,8 C 18,9 C 18,3 C 75 % 1018,7 hPa 0,0 l/m 0 min 0 min 0 W/m 6,8 km/h (2 Bft) 100,00 %
18.06.2018 22:16 19,8 C 18,9 C 18,3 C 75 % 1018,7 hPa 0,0 l/m 0 min 0 min 0 W/m 2,3 km/h (1 Bft) 100,00 %
18.06.2018 22:18 19,7 C 18,9 C 18,3 C 75 % 1018,7 hPa 0,0 l/m 0 min 0 min 0 W/m 2,3 km/h (1 Bft) 100,00 %
18.06.2018 22:20 19,7 C 18,9 C 18,3 C 75 % 1018,8 hPa 0,0 l/m 0 min 0 min 0 W/m 4,5 km/h (1 Bft) 97,87 %
18.06.2018 22:22 19,7 C 18,9 C 18,3 C 75 % 1018,8 hPa 0,0 l/m 0 min 0 min 0 W/m 4,5 km/h (1 Bft) 100,00 %
18.06.2018 22:24 19,7 C 18,9 C 18,3 C 75 % 1018,8 hPa 0,0 l/m 0 min 0 min 0 W/m 2,3 km/h (1 Bft) 100,00 %
18.06.2018 22:26 19,7 C 18,9 C 18,3 C 76 % 1018,8 hPa 0,0 l/m 0 min 0 min 0 W/m 2,3 km/h (1 Bft) 100,00 %
18.06.2018 22:28 19,7 C 18,9 C 18,3 C 76 % 1018,8 hPa 0,0 l/m 0 min 0 min 0 W/m 4,5 km/h (1 Bft) 100,00 %
18.06.2018 22:30 19,6 C 18,9 C 18,3 C 76 % 1018,9 hPa 0,0 l/m 0 min 0 min 0 W/m 2,3 km/h (1 Bft) 97,87 %
18.06.2018 22:32 19,6 C 18,9 C 18,3 C 76 % 1019,0 hPa 0,0 l/m 0 min 0 min 0 W/m 6,8 km/h (2 Bft) 100,00 %
18.06.2018 22:34 19,6 C 18,9 C 18,3 C 76 % 1019,0 hPa 0,0 l/m 0 min 0 min 0 W/m 2,3 km/h (1 Bft) 100,00 %
18.06.2018 22:36 19,6 C 18,9 C 18,3 C 76 % 1019,0 hPa 0,0 l/m 0 min 0 min 0 W/m 4,5 km/h (1 Bft) 100,00 %
18.06.2018 22:38 19,6 C 18,9 C 18,3 C 76 % 1018,9 hPa 0,0 l/m 0 min 0 min 0 W/m 4,5 km/h (1 Bft) 100,00 %
18.06.2018 22:40 19,5 C 18,9 C 18,3 C 76 % 1018,9 hPa 0,0 l/m 0 min 0 min 0 W/m 4,5 km/h (1 Bft) 100,00 %
18.06.2018 22:42 19,5 C 18,9 C 18,3 C 76 % 1018,9 hPa 0,0 l/m 0 min 0 min 0 W/m 2,3 km/h (1 Bft) 100,00 %
18.06.2018 22:44 19,5 C 18,9 C 18,3 C 76 % 1018,9 hPa 0,0 l/m 0 min 0 min 0 W/m 4,5 km/h (1 Bft) 100,00 %
18.06.2018 22:46 19,4 C 18,3 C 18,3 C 76 % 1019,0 hPa 0,0 l/m 0 min 0 min 0 W/m 9,0 km/h (2 Bft) 100,00 %
18.06.2018 22:48 19,4 C 18,3 C 18,3 C 76 % 1019,0 hPa 0,0 l/m 0 min 0 min 0 W/m 4,5 km/h (1 Bft) 100,00 %
18.06.2018 22:50 19,4 C 18,3 C 18,3 C 76 % 1019,0 hPa 0,0 l/m 0 min 0 min 0 W/m 9,0 km/h (2 Bft) 100,00 %
18.06.2018 22:52 19,4 C 18,3 C 18,3 C 76 % 1019,0 hPa 0,0 l/m 0 min 0 min 0 W/m 4,5 km/h (1 Bft) 100,00 %
18.06.2018 22:54 19,3 C 18,3 C 18,3 C 76 % 1019,0 hPa 0,0 l/m 0 min 0 min 0 W/m 2,3 km/h (1 Bft) 100,00 %
18.06.2018 22:56 19,3 C 18,3 C 18,3 C 76 % 1019,0 hPa 0,0 l/m 0 min 0 min 0 W/m 2,3 km/h (1 Bft) 100,00 %
18.06.2018 22:58 19,3 C 18,3 C 18,3 C 76 % 1019,0 hPa 0,0 l/m 0 min 0 min 0 W/m 2,3 km/h (1 Bft) 100,00 %
18.06.2018 23:00 19,3 C 18,3 C 18,3 C 77 % 1018,9 hPa 0,0 l/m 0 min 0 min 0 W/m 4,5 km/h (1 Bft) 97,83 %
18.06.2018 23:02 19,2 C 18,3 C 17,8 C 77 % 1019,0 hPa 0,0 l/m 0 min 0 min 0 W/m 2,3 km/h (1 Bft) 100,00 %
18.06.2018 23:04 19,2 C 18,3 C 17,8 C 77 % 1019,0 hPa 0,0 l/m 0 min 0 min 0 W/m 4,5 km/h (1 Bft) 100,00 %
18.06.2018 23:06 19,2 C 18,3 C 17,8 C 77 % 1019,1 hPa 0,0 l/m 0 min 0 min 0 W/m 2,3 km/h (1 Bft) 100,00 %
18.06.2018 23:08 19,2 C 17,8 C 17,8 C 77 % 1019,1 hPa 0,0 l/m 0 min 0 min 0 W/m 2,3 km/h (1 Bft) 100,00 %
18.06.2018 23:10 19,1 C 17,8 C 17,8 C 77 % 1019,0 hPa 0,0 l/m 0 min 0 min 0 W/m 0,0 km/h (0 Bft) 100,00 %
18.06.2018 23:12 19,1 C 17,8 C 17,8 C 77 % 1019,1 hPa 0,0 l/m 0 min 0 min 0 W/m 0,0 km/h (0 Bft) 100,00 %
18.06.2018 23:14 19,1 C 17,8 C 17,8 C 77 % 1019,1 hPa 0,0 l/m 0 min 0 min 0 W/m 0,0 km/h (0 Bft) 100,00 %
18.06.2018 23:16 19,1 C 17,2 C 17,8 C 77 % 1019,2 hPa 0,0 l/m 0 min 0 min 0 W/m 2,3 km/h (1 Bft) 100,00 %
18.06.2018 23:18 19,0 C 17,2 C 17,2 C 78 % 1019,1 hPa 0,0 l/m 0 min 0 min 0 W/m 2,3 km/h (1 Bft) 97,87 %
18.06.2018 23:20 18,9 C 17,2 C 17,2 C 78 % 1019,1 hPa 0,0 l/m 0 min 0 min 0 W/m 4,5 km/h (1 Bft) 97,87 %
18.06.2018 23:22 18,9 C 17,2 C 17,2 C 78 % 1019,1 hPa 0,0 l/m 0 min 0 min 0 W/m 2,3 km/h (1 Bft) 97,87 %
18.06.2018 23:24 18,8 C 17,2 C 17,2 C 78 % 1019,1 hPa 0,0 l/m 0 min 0 min 0 W/m 2,3 km/h (1 Bft) 100,00 %
18.06.2018 23:26 18,8 C 17,2 C 17,2 C 78 % 1019,1 hPa 0,0 l/m 0 min 0 min 0 W/m 0,0 km/h (0 Bft) 100,00 %
18.06.2018 23:28 18,8 C 17,2 C 17,2 C 78 % 1019,1 hPa 0,0 l/m 0 min 0 min 0 W/m 0,0 km/h (0 Bft) 100,00 %
18.06.2018 23:30 18,7 C 17,2 C 17,2 C 78 % 1019,1 hPa 0,0 l/m 0 min 0 min 0 W/m 0,0 km/h (0 Bft) 95,74 %
18.06.2018 23:32 18,7 C 16,7 C 17,2 C 78 % 1019,1 hPa 0,0 l/m 0 min 0 min 0 W/m 2,3 km/h (1 Bft) 100,00 %
18.06.2018 23:34 18,6 C 16,7 C 17,2 C 78 % 1019,1 hPa 0,0 l/m 0 min 0 min 0 W/m 0,0 km/h (0 Bft) 95,74 %
18.06.2018 23:36 18,6 C 16,7 C 17,2 C 79 % 1019,1 hPa 0,0 l/m 0 min 0 min 0 W/m 0,0 km/h (0 Bft) 97,87 %
18.06.2018 23:38 18,5 C 16,7 C 16,7 C 79 % 1019,2 hPa 0,0 l/m 0 min 0 min 0 W/m 0,0 km/h (0 Bft) 95,74 %
18.06.2018 23:40 18,4 C 16,7 C 16,7 C 79 % 1019,2 hPa 0,0 l/m 0 min 0 min 0 W/m 0,0 km/h (0 Bft) 97,87 %
18.06.2018 23:42 18,4 C 16,7 C 16,7 C 79 % 1019,1 hPa 0,0 l/m 0 min 0 min 0 W/m 0,0 km/h (0 Bft) 97,83 %
18.06.2018 23:44 18,3 C 16,7 C 16,7 C 79 % 1019,2 hPa 0,0 l/m 0 min 0 min 0 W/m 0,0 km/h (0 Bft) 100,00 %
18.06.2018 23:46 18,3 C 16,7 C 16,7 C 79 % 1019,2 hPa 0,0 l/m 0 min 0 min 0 W/m 2,3 km/h (1 Bft) 100,00 %
18.06.2018 23:48 18,2 C 16,7 C 16,7 C 79 % 1019,2 hPa 0,0 l/m 0 min 0 min 0 W/m 0,0 km/h (0 Bft) 95,74 %
18.06.2018 23:50 18,2 C 16,7 C 16,7 C 80 % 1019,3 hPa 0,0 l/m 0 min 0 min 0 W/m 0,0 km/h (0 Bft) 95,74 %
18.06.2018 23:52 18,1 C 16,7 C 16,7 C 80 % 1019,2 hPa 0,0 l/m 0 min 0 min 0 W/m 2,3 km/h (1 Bft) 97,87 %
18.06.2018 23:54 18,1 C 16,7 C 16,7 C 80 % 1019,3 hPa 0,0 l/m 0 min 0 min 0 W/m 4,5 km/h (1 Bft) 95,65 %
18.06.2018 23:56 18,0 C 16,7 C 16,7 C 80 % 1019,3 hPa 0,0 l/m 0 min 0 min 0 W/m 0,0 km/h (0 Bft) 95,74 %
18.06.2018 23:58 18,0 C 16,7 C 16,7 C 80 % 1019,3 hPa 0,0 l/m 0 min 0 min 0 W/m 2,3 km/h (1 Bft) 93,62 %
_ Min-Zeit 05:32 04:34 00:00 11:52 04:30 - - - - 00:00 18:30
Minimum _ 15,7 C 15,0 C 15,0 C 69 % 1017,4 hPa - - - - 0,0 km/h (0 Bft) 89,36 %
_ Max-Zeit 19:16 11:28 17:30 06:18 23:50 00:00 18:08 14:42 16:18 11:50 00:42
Maximum _ 22,7 C 25,6 C 21,7 C 84 % 1019,3 hPa 0,0 l/m 4 min 2 min 659 W/m 18,0 km/h
S-SO (3 Bft)
100,00 %
Durchschnitt _ 19,2 C 19,1 C 18,2 C 76 % 1018,1 hPa #0,0 l/m #3:06 h #2 min. 218 W/m 6,2 km/h (2 Bft) 97,51 %
© 2018 W. Hausmann